Time,TemperatureF,DewpointF,PressureIn,WindDirection,WindDirectionDegrees,WindSpeedMPH,WindSpeedGustMPH,Humidity,HourlyPrecipIn,Conditions,Clouds,dailyrainin,SoftwareType,DateUTC
2013-05-27 00:01:00,60.0,16.3,30.26,North,1,0.0,0.0,18,0.00,CLR,,0.00,WeatherDisplay:10.37,2013-05-27 04:01:00,
2013-05-27 00:06:00,59.7,10.3,30.26,North,1,0.0,0.0,14,0.00,CLR,,0.00,WeatherDisplay:10.37,2013-05-27 04:06:00,
2013-05-27 00:11:00,58.8,9.6,30.27,North,1,0.0,0.0,14,0.00,CLR,,0.00,WeatherDisplay:10.37,2013-05-27 04:11:00,
2013-05-27 00:16:00,59.8,19.7,30.27,North,1,0.0,0.0,21,0.00,CLR,,0.00,WeatherDisplay:10.37,2013-05-27 04:16:00,
2013-05-27 00:17:00,59.9,19.8,30.27,North,1,0.0,0.0,21,0.00,CLR,,0.00,WeatherDisplay:10.37,2013-05-27 04:17:00,
2013-05-27 00:21:00,60.5,16.7,30.27,North,1,0.0,0.0,18,0.00,CLR,,0.00,WeatherDisplay:10.37,2013-05-27 04:21:00,
2013-05-27 00:22:00,60.7,11.1,30.27,North,1,0.0,0.0,14,0.00,CLR,,0.00,WeatherDisplay:10.37,2013-05-27 04:22:00,
2013-05-27 00:26:00,59.5,6.8,30.27,North,1,0.0,0.0,12,0.00,CLR,,0.00,WeatherDisplay:10.37,2013-05-27 04:26:00,
2013-05-27 00:27:00,58.9,8.1,30.27,North,1,0.0,0.0,13,0.00,CLR,,0.00,WeatherDisplay:10.37,2013-05-27 04:27:00,
2013-05-27 00:31:00,58.5,9.4,30.27,North,1,0.0,0.0,14,0.00,CLR,,0.00,WeatherDisplay:10.37,2013-05-27 04:31:00,
2013-05-27 00:32:00,57.3,8.4,30.27,North,1,0.0,0.0,14,0.00,CLR,,0.00,WeatherDisplay:10.37,2013-05-27 04:32:00,
2013-05-27 00:36:00,55.7,14.0,30.27,North,1,0.0,0.0,19,0.00,CLR,,0.00,WeatherDisplay:10.37,2013-05-27 04:36:00,
2013-05-27 00:37:00,54.6,11.9,30.27,North,1,0.0,0.0,18,0.00,CLR,,0.00,WeatherDisplay:10.37,2013-05-27 04:37:00,
2013-05-27 00:42:00,53.4,18.4,30.27,North,1,0.0,0.0,25,0.00,CLR,,0.00,WeatherDisplay:10.37,2013-05-27 04:42:00,
2013-05-27 00:47:00,54.0,23.2,30.27,North,1,0.0,0.0,30,0.00,CLR,,0.00,WeatherDisplay:10.37,2013-05-27 04:47:00,
2013-05-27 00:52:00,53.1,25.4,30.28,North,1,0.0,0.0,34,0.00,CLR,,0.00,WeatherDisplay:10.37,2013-05-27 04:52:00,
2013-05-27 00:57:00,53.5,19.4,30.28,North,1,0.0,0.0,26,0.00,CLR,,0.00,WeatherDisplay:10.37,2013-05-27 04:57:00,
2013-05-27 00:58:00,51.9,18.0,30.28,North,1,0.0,0.0,26,0.00,CLR,,0.00,WeatherDisplay:10.37,2013-05-27 04:58:00,
2013-05-27 01:02:00,52.1,20.8,30.28,North,1,0.0,0.0,29,0.00,CLR,,0.00,WeatherDisplay:10.37,2013-05-27 05:02:00,
2013-05-27 01:03:00,52.1,20.8,30.27,North,1,0.0,0.0,29,0.00,CLR,,0.00,WeatherDisplay:10.37,2013-05-27 05:03:00,
2013-05-27 01:07:00,52.6,23.5,30.27,North,1,0.0,0.0,32,0.00,CLR,,0.00,WeatherDisplay:10.37,2013-05-27 05:07:00,
2013-05-27 01:08:00,51.0,22.9,30.27,North,1,0.0,0.0,33,0.00,CLR,,0.00,WeatherDisplay:10.37,2013-05-27 05:08:00,
2013-05-27 01:12:00,51.2,20.0,30.27,North,1,0.0,0.0,29,0.00,CLR,,0.00,WeatherDisplay:10.37,2013-05-27 05:12:00,
2013-05-27 01:13:00,51.3,21.6,30.28,North,1,0.0,0.0,31,0.00,CLR,,0.00,WeatherDisplay:10.37,2013-05-27 05:13:00,
2013-05-27 01:17:00,52.6,20.4,30.27,North,1,0.0,0.0,28,0.00,CLR,,0.00,WeatherDisplay:10.37,2013-05-27 05:17:00,
2013-05-27 01:18:00,51.7,17.9,30.27,North,1,0.0,0.0,26,0.00,CLR,,0.00,WeatherDisplay:10.37,2013-05-27 05:18:00,
2013-05-27 01:19:00,51.7,17.0,30.27,North,1,0.0,0.0,25,0.00,CLR,,0.00,WeatherDisplay:10.37,2013-05-27 05:19:00,
2013-05-27 01:22:00,52.2,17.4,30.27,North,1,0.0,0.0,25,0.00,CLR,,0.00,WeatherDisplay:10.37,2013-05-27 05:22:00,
2013-05-27 01:23:00,52.2,17.4,30.27,North,1,0.0,0.0,25,0.00,CLR,,0.00,WeatherDisplay:10.37,2013-05-27 05:23:00,
2013-05-27 01:24:00,51.4,15.8,30.28,North,1,0.0,0.0,24,0.00,CLR,,0.00,WeatherDisplay:10.37,2013-05-27 05:24:00,
2013-05-27 01:27:00,51.7,16.0,30.28,North,1,0.0,0.0,24,0.00,CLR,,0.00,WeatherDisplay:10.37,2013-05-27 05:27:00,
2013-05-27 01:28:00,51.6,17.8,30.28,North,1,0.0,0.0,26,0.00,CLR,,0.00,WeatherDisplay:10.37,2013-05-27 05:28:00,
2013-05-27 01:30:00,51.8,18.0,30.28,North,1,0.0,0.0,26,0.00,CLR,,0.00,WeatherDisplay:10.37,2013-05-27 05:30:00,
2013-05-27 01:32:00,50.8,17.1,30.28,North,1,0.0,0.0,26,0.00,CLR,,0.00,WeatherDisplay:10.37,2013-05-27 05:32:00,
2013-05-27 01:33:00,50.7,17.0,30.28,North,1,0.0,0.0,26,0.00,CLR,,0.00,WeatherDisplay:10.37,2013-05-27 05:33:00,
2013-05-27 01:34:00,51.6,17.8,30.28,North,1,0.0,0.0,26,0.00,CLR,,0.00,WeatherDisplay:10.37,2013-05-27 05:34:00,
2013-05-27 01:35:00,51.1,19.1,30.28,North,1,0.0,0.0,28,0.00,CLR,,0.00,WeatherDisplay:10.37,2013-05-27 05:35:00,
2013-05-27 01:38:00,50.8,18.8,30.28,North,1,0.0,0.0,28,0.00,CLR,,0.00,WeatherDisplay:10.37,2013-05-27 05:38:00,
2013-05-27 01:39:00,51.1,20.7,30.28,North,1,0.0,0.0,30,0.00,CLR,,0.00,WeatherDisplay:10.37,2013-05-27 05:39:00,
2013-05-27 01:40:00,50.9,20.5,30.28,North,1,0.0,0.0,30,0.00,CLR,,0.00,WeatherDisplay:10.37,2013-05-27 05:40:00,
2013-05-27 01:43:00,50.7,23.3,30.28,North,1,0.0,0.0,34,0.00,CLR,,0.00,WeatherDisplay:10.37,2013-05-27 05:43:00,
2013-05-27 01:44:00,50.7,20.4,30.28,North,1,0.0,0.0,30,0.00,CLR,,0.00,WeatherDisplay:10.37,2013-05-27 05:44:00,
2013-05-27 01:45:00,50.6,21.0,30.28,North,1,0.0,0.0,31,0.00,CLR,,0.00,WeatherDisplay:10.37,2013-05-27 05:45:00,
2013-05-27 01:48:00,50.8,20.4,30.28,North,1,0.0,0.0,30,0.00,CLR,,0.00,WeatherDisplay:10.37,2013-05-27 05:48:00,
2013-05-27 01:49:00,50.8,20.4,30.28,North,1,0.0,0.0,30,0.00,CLR,,0.00,WeatherDisplay:10.37,2013-05-27 05:49:00,
2013-05-27 01:50:00,51.0,19.0,30.27,North,1,0.0,0.0,28,0.00,CLR,,0.00,WeatherDisplay:10.37,2013-05-27 05:50:00,
2013-05-27 01:53:00,50.8,20.4,30.27,North,1,0.0,0.0,30,0.00,CLR,,0.00,WeatherDisplay:10.37,2013-05-27 05:53:00,
2013-05-27 01:54:00,51.4,21.0,30.27,North,1,0.0,0.0,30,0.00,CLR,,0.00,WeatherDisplay:10.37,2013-05-27 05:54:00,
2013-05-27 01:56:00,50.9,20.5,30.28,North,1,0.0,0.0,30,0.00,CLR,,0.00,WeatherDisplay:10.37,2013-05-27 05:56:00,
2013-05-27 01:59:00,50.8,22.0,30.28,North,1,0.0,0.0,32,0.00,CLR,,0.00,WeatherDisplay:10.37,2013-05-27 05:59:00,
2013-05-27 02:01:00,51.2,22.3,30.27,North,1,0.0,0.0,32,0.00,CLR,,0.00,WeatherDisplay:10.37,2013-05-27 06:01:00,
2013-05-27 02:04:00,51.5,18.6,30.27,North,1,0.0,0.0,27,0.00,CLR,,0.00,WeatherDisplay:10.37,2013-05-27 06:04:00,
2013-05-27 02:06:00,50.8,20.4,30.27,WNW,301,0.0,3.5,30,0.00,CLR,,0.00,WeatherDisplay:10.37,2013-05-27 06:06:00,
2013-05-27 02:09:00,51.1,20.7,30.28,WNW,301,0.0,0.0,30,0.00,CLR,,0.00,WeatherDisplay:10.37,2013-05-27 06:09:00,
2013-05-27 02:10:00,50.7,20.4,30.28,WNW,301,0.0,0.0,30,0.00,CLR,,0.00,WeatherDisplay:10.37,2013-05-27 06:10:00,
2013-05-27 02:11:00,50.5,20.2,30.28,WNW,301,0.0,0.0,30,0.00,CLR,,0.00,WeatherDisplay:10.37,2013-05-27 06:11:00,
2013-05-27 02:14:00,50.6,21.8,30.27,WNW,301,0.0,0.0,32,0.00,CLR,,0.00,WeatherDisplay:10.37,2013-05-27 06:14:00,
2013-05-27 02:15:00,51.1,22.2,30.27,WNW,301,0.0,0.0,32,0.00,CLR,,0.00,WeatherDisplay:10.37,2013-05-27 06:15:00,
2013-05-27 02:16:00,50.3,22.3,30.27,WNW,301,0.0,0.0,33,0.00,CLR,,0.00,WeatherDisplay:10.37,2013-05-27 06:16:00,
2013-05-27 02:20:00,50.7,21.9,30.28,WNW,301,0.0,0.0,32,0.00,CLR,,0.00,WeatherDisplay:10.37,2013-05-27 06:20:00,
2013-05-27 02:22:00,50.3,22.3,30.28,WNW,301,0.0,0.0,33,0.00,CLR,,0.00,WeatherDisplay:10.37,2013-05-27 06:22:00,
2013-05-27 02:24:00,50.2,21.4,30.28,WNW,301,0.0,0.0,32,0.00,CLR,,0.00,WeatherDisplay:10.37,2013-05-27 06:24:00,
2013-05-27 02:25:00,50.4,22.3,30.28,WNW,301,0.0,0.0,33,0.00,CLR,,0.00,WeatherDisplay:10.37,2013-05-27 06:25:00,
2013-05-27 02:27:00,50.6,22.5,30.28,WNW,301,0.0,0.0,33,0.00,CLR,,0.00,WeatherDisplay:10.37,2013-05-27 06:27:00,
2013-05-27 02:30:00,50.8,23.4,30.28,NW,306,1.6,4.6,34,0.00,CLR,,0.00,WeatherDisplay:10.37,2013-05-27 06:30:00,
2013-05-27 02:31:00,50.2,23.6,30.28,NW,306,0.0,4.6,35,0.00,CLR,,0.00,WeatherDisplay:10.37,2013-05-27 06:31:00,
2013-05-27 02:32:00,50.6,23.9,30.28,NW,306,0.0,0.0,35,0.00,CLR,,0.00,WeatherDisplay:10.37,2013-05-27 06:32:00,
2013-05-27 02:35:00,50.6,24.6,30.28,NW,306,0.0,0.0,36,0.00,CLR,,0.00,WeatherDisplay:10.37,2013-05-27 06:35:00,
2013-05-27 02:36:00,50.1,24.2,30.28,NW,306,0.0,0.0,36,0.00,CLR,,0.00,WeatherDisplay:10.37,2013-05-27 06:36:00,
2013-05-27 02:37:00,50.4,24.4,30.28,NW,306,0.0,0.0,36,0.00,CLR,,0.00,WeatherDisplay:10.37,2013-05-27 06:37:00,
2013-05-27 02:40:00,50.5,25.8,30.28,NW,306,0.0,0.0,38,0.00,CLR,,0.00,WeatherDisplay:10.37,2013-05-27 06:40:00,
2013-05-27 02:41:00,50.5,25.8,30.28,NW,306,0.0,0.0,38,0.00,CLR,,0.00,WeatherDisplay:10.37,2013-05-27 06:41:00,
2013-05-27 02:43:00,50.5,25.8,30.28,NW,306,0.0,0.0,38,0.00,CLR,,0.00,WeatherDisplay:10.37,2013-05-27 06:43:00,
2013-05-27 02:45:00,50.2,26.8,30.28,NW,306,0.0,0.0,40,0.00,CLR,,0.00,WeatherDisplay:10.37,2013-05-27 06:45:00,
2013-05-27 02:46:00,50.3,26.9,30.28,NW,306,0.0,0.0,40,0.00,CLR,,0.00,WeatherDisplay:10.37,2013-05-27 06:46:00,
2013-05-27 02:48:00,50.4,28.7,30.28,NW,306,0.0,0.0,43,0.00,CLR,,0.00,WeatherDisplay:10.37,2013-05-27 06:48:00,
2013-05-27 02:50:00,50.5,27.0,30.28,NW,306,0.0,0.0,40,0.00,CLR,,0.00,WeatherDisplay:10.37,2013-05-27 06:50:00,
2013-05-27 02:51:00,50.8,27.3,30.28,NW,306,0.0,0.0,40,0.00,CLR,,0.00,WeatherDisplay:10.37,2013-05-27 06:51:00,
2013-05-27 02:52:00,50.4,27.0,30.28,NW,306,0.0,0.0,40,0.00,CLR,,0.00,WeatherDisplay:10.37,2013-05-27 06:52:00,
2013-05-27 02:53:00,50.4,27.6,30.28,NW,306,0.0,0.0,41,0.00,CLR,,0.00,WeatherDisplay:10.37,2013-05-27 06:53:00,
2013-05-27 02:56:00,50.9,28.6,30.28,NW,306,0.0,0.0,42,0.00,CLR,,0.00,WeatherDisplay:10.37,2013-05-27 06:56:00,
2013-05-27 02:57:00,50.8,26.7,30.28,NW,306,0.0,0.0,39,0.00,CLR,,0.00,WeatherDisplay:10.37,2013-05-27 06:57:00,
2013-05-27 02:58:00,50.8,26.1,30.28,NW,306,0.0,0.0,38,0.00,CLR,,0.00,WeatherDisplay:10.37,2013-05-27 06:58:00,
2013-05-27 03:01:00,50.8,26.7,30.28,NW,306,0.0,0.0,39,0.00,CLR,,0.00,WeatherDisplay:10.37,2013-05-27 07:01:00,
2013-05-27 03:02:00,50.6,26.5,30.28,NW,306,0.0,0.0,39,0.00,CLR,,0.00,WeatherDisplay:10.37,2013-05-27 07:02:00,
2013-05-27 03:04:00,50.5,27.0,30.28,NW,306,0.0,0.0,40,0.00,CLR,,0.00,WeatherDisplay:10.37,2013-05-27 07:04:00,
2013-05-27 03:06:00,50.4,27.0,30.28,NW,306,0.0,0.0,40,0.00,CLR,,0.00,WeatherDisplay:10.37,2013-05-27 07:06:00,
2013-05-27 03:07:00,50.6,27.7,30.28,NW,306,0.0,0.0,41,0.00,CLR,,0.00,WeatherDisplay:10.37,2013-05-27 07:07:00,
2013-05-27 03:09:00,50.6,27.7,30.28,NW,306,0.0,0.0,41,0.00,CLR,,0.00,WeatherDisplay:10.37,2013-05-27 07:09:00,
2013-05-27 03:11:00,50.6,29.5,30.28,NW,306,0.0,0.0,44,0.00,CLR,,0.00,WeatherDisplay:10.37,2013-05-27 07:11:00,
2013-05-27 03:12:00,51.2,28.3,30.28,NW,306,0.0,0.0,41,0.00,CLR,,0.00,WeatherDisplay:10.37,2013-05-27 07:12:00,
2013-05-27 03:13:00,51.1,28.2,30.28,NW,306,0.0,0.0,41,0.00,CLR,,0.00,WeatherDisplay:10.37,2013-05-27 07:13:00,
2013-05-27 03:14:00,50.7,26.0,30.28,NW,306,0.0,0.0,38,0.00,CLR,,0.00,WeatherDisplay:10.37,2013-05-27 07:14:00,
2013-05-27 03:16:00,50.4,26.3,30.28,NW,306,0.0,0.0,39,0.00,CLR,,0.00,WeatherDisplay:10.37,2013-05-27 07:16:00,
2013-05-27 03:17:00,50.8,26.1,30.28,NW,306,0.0,0.0,38,0.00,CLR,,0.00,WeatherDisplay:10.37,2013-05-27 07:17:00,
2013-05-27 03:18:00,50.7,26.0,30.28,NW,306,0.0,0.0,38,0.00,CLR,,0.00,WeatherDisplay:10.37,2013-05-27 07:18:00,
2013-05-27 03:19:00,50.4,25.7,30.28,NW,306,0.0,0.0,38,0.00,CLR,,0.00,WeatherDisplay:10.37,2013-05-27 07:19:00,
2013-05-27 03:21:00,50.8,27.3,30.28,NW,306,0.0,0.0,40,0.00,CLR,,0.00,WeatherDisplay:10.37,2013-05-27 07:21:00,
2013-05-27 03:22:00,50.4,27.0,30.28,NW,306,0.0,0.0,40,0.00,CLR,,0.00,WeatherDisplay:10.37,2013-05-27 07:22:00,
2013-05-27 03:23:00,50.5,27.0,30.28,NW,306,0.0,0.0,40,0.00,CLR,,0.00,WeatherDisplay:10.37,2013-05-27 07:23:00,
2013-05-27 03:25:00,50.5,27.7,30.28,NW,306,0.0,0.0,41,0.00,CLR,,0.00,WeatherDisplay:10.37,2013-05-27 07:25:00,
2013-05-27 03:27:00,50.7,26.0,30.28,NW,306,0.0,0.0,38,0.00,CLR,,0.00,WeatherDisplay:10.37,2013-05-27 07:27:00,
2013-05-27 03:28:00,50.5,25.8,30.28,NW,306,0.0,0.0,38,0.00,CLR,,0.00,WeatherDisplay:10.37,2013-05-27 07:28:00,
2013-05-27 03:30:00,50.5,25.2,30.28,NW,306,0.0,0.0,37,0.00,CLR,,0.00,WeatherDisplay:10.37,2013-05-27 07:30:00,
2013-05-27 03:32:00,50.2,25.5,30.28,NW,306,0.0,0.0,38,0.00,CLR,,0.00,WeatherDisplay:10.37,2013-05-27 07:32:00,
2013-05-27 03:33:00,50.2,25.5,30.27,NW,306,0.0,0.0,38,0.00,CLR,,0.00,WeatherDisplay:10.37,2013-05-27 07:33:00,
2013-05-27 03:35:00,50.1,26.1,30.27,NW,306,0.0,0.0,39,0.00,CLR,,0.00,WeatherDisplay:10.37,2013-05-27 07:35:00,
2013-05-27 03:37:00,50.1,26.1,30.27,NW,306,0.0,0.0,39,0.00,CLR,,0.00,WeatherDisplay:10.37,2013-05-27 07:37:00,
2013-05-27 03:38:00,50.0,26.0,30.27,NW,306,0.0,0.0,39,0.00,CLR,,0.00,WeatherDisplay:10.37,2013-05-27 07:38:00,
2013-05-27 03:40:00,49.8,26.4,30.28,NW,306,0.0,0.0,40,0.00,CLR,,0.00,WeatherDisplay:10.37,2013-05-27 07:40:00,
2013-05-27 03:42:00,50.0,26.6,30.28,NW,306,0.0,0.0,40,0.00,CLR,,0.00,WeatherDisplay:10.37,2013-05-27 07:42:00,
2013-05-27 03:43:00,50.0,26.6,30.28,NW,306,0.0,0.0,40,0.00,CLR,,0.00,WeatherDisplay:10.37,2013-05-27 07:43:00,
2013-05-27 03:45:00,49.9,27.1,30.28,NW,306,0.0,0.0,41,0.00,CLR,,0.00,WeatherDisplay:10.37,2013-05-27 07:45:00,
2013-05-27 03:47:00,49.8,27.6,30.28,NW,306,0.0,0.0,42,0.00,CLR,,0.00,WeatherDisplay:10.37,2013-05-27 07:47:00,
2013-05-27 03:48:00,49.9,27.7,30.28,NW,306,0.0,0.0,42,0.00,CLR,,0.00,WeatherDisplay:10.37,2013-05-27 07:48:00,
2013-05-27 03:49:00,49.7,27.5,30.28,NW,306,0.0,0.0,42,0.00,CLR,,0.00,WeatherDisplay:10.37,2013-05-27 07:49:00,
2013-05-27 03:50:00,49.8,27.6,30.28,NW,306,0.0,0.0,42,0.00,CLR,,0.00,WeatherDisplay:10.37,2013-05-27 07:50:00,
2013-05-27 03:53:00,49.7,27.5,30.27,NW,306,0.0,0.0,42,0.00,CLR,,0.00,WeatherDisplay:10.37,2013-05-27 07:53:00,
2013-05-27 03:54:00,49.6,27.4,30.27,NW,306,0.0,0.0,42,0.00,CLR,,0.00,WeatherDisplay:10.37,2013-05-27 07:54:00,
2013-05-27 03:55:00,49.7,27.5,30.27,NW,306,0.0,0.0,42,0.00,CLR,,0.00,WeatherDisplay:10.37,2013-05-27 07:55:00,
2013-05-27 03:56:00,49.7,28.6,30.28,NW,306,0.0,0.0,44,0.00,CLR,,0.00,WeatherDisplay:10.37,2013-05-27 07:56:00,
2013-05-27 03:58:00,49.7,29.2,30.28,NW,306,0.0,0.0,45,0.00,CLR,,0.00,WeatherDisplay:10.37,2013-05-27 07:58:00,
2013-05-27 03:59:00,49.5,29.0,30.28,NW,306,0.0,0.0,45,0.00,CLR,,0.00,WeatherDisplay:10.37,2013-05-27 07:59:00,
2013-05-27 04:00:00,49.6,29.1,30.28,NW,306,0.0,0.0,45,0.00,CLR,,0.00,WeatherDisplay:10.37,2013-05-27 08:00:00,
2013-05-27 04:01:00,49.5,29.0,30.28,NW,306,0.0,0.0,45,0.00,CLR,,0.00,WeatherDisplay:10.37,2013-05-27 08:01:00,
2013-05-27 04:03:00,49.7,31.8,30.28,NW,306,0.0,0.0,50,0.00,CLR,,0.00,WeatherDisplay:10.37,2013-05-27 08:03:00,
2013-05-27 04:04:00,49.6,32.7,30.28,NW,306,0.0,0.0,52,0.00,CLR,,0.00,WeatherDisplay:10.37,2013-05-27 08:04:00,
2013-05-27 04:05:00,49.6,34.5,30.28,NW,306,0.0,0.0,56,0.00,CLR,,0.00,WeatherDisplay:10.37,2013-05-27 08:05:00,
2013-05-27 04:06:00,49.6,29.6,30.28,NW,306,0.0,0.0,46,0.00,CLR,,0.00,WeatherDisplay:10.37,2013-05-27 08:06:00,
2013-05-27 04:08:00,49.9,29.9,30.27,NW,306,0.0,0.0,46,0.00,CLR,,0.00,WeatherDisplay:10.37,2013-05-27 08:08:00,
2013-05-27 04:09:00,50.1,29.6,30.27,NW,306,0.0,0.0,45,0.00,CLR,,0.00,WeatherDisplay:10.37,2013-05-27 08:09:00,
2013-05-27 04:10:00,50.1,29.6,30.27,NW,306,0.0,0.0,45,0.00,CLR,,0.00,WeatherDisplay:10.37,2013-05-27 08:10:00,
2013-05-27 04:12:00,49.5,28.5,30.27,NW,306,0.0,0.0,44,0.00,CLR,,0.00,WeatherDisplay:10.37,2013-05-27 08:12:00,
2013-05-27 04:14:00,49.8,29.3,30.28,NW,306,0.0,0.0,45,0.00,CLR,,0.00,WeatherDisplay:10.37,2013-05-27 08:14:00,
2013-05-27 04:15:00,49.7,29.7,30.27,NW,306,0.0,0.0,46,0.00,CLR,,0.00,WeatherDisplay:10.37,2013-05-27 08:15:00,
2013-05-27 04:17:00,49.7,30.8,30.27,NW,306,0.0,0.0,48,0.00,CLR,,0.00,WeatherDisplay:10.37,2013-05-27 08:17:00,
2013-05-27 04:19:00,50.2,30.7,30.28,NW,306,0.0,0.0,47,0.00,CLR,,0.00,WeatherDisplay:10.37,2013-05-27 08:19:00,
2013-05-27 04:20:00,50.0,29.5,30.27,NW,306,0.0,0.0,45,0.00,CLR,,0.00,WeatherDisplay:10.37,2013-05-27 08:20:00,
2013-05-27 04:23:00,50.0,29.5,30.28,NW,306,0.0,0.0,45,0.00,CLR,,0.00,WeatherDisplay:10.37,2013-05-27 08:23:00,
2013-05-27 04:24:00,50.1,30.6,30.27,NW,306,0.0,0.0,47,0.00,CLR,,0.00,WeatherDisplay:10.37,2013-05-27 08:24:00,
2013-05-27 04:25:00,50.0,31.1,30.27,NW,306,0.0,0.0,48,0.00,CLR,,0.00,WeatherDisplay:10.37,2013-05-27 08:25:00,
2013-05-27 04:28:00,50.5,31.0,30.28,NW,306,0.0,0.0,47,0.00,CLR,,0.00,WeatherDisplay:10.37,2013-05-27 08:28:00,
2013-05-27 04:29:00,50.2,29.7,30.28,NW,306,0.0,0.0,45,0.00,CLR,,0.00,WeatherDisplay:10.37,2013-05-27 08:29:00,
2013-05-27 04:30:00,50.3,27.5,30.28,NW,306,0.0,0.0,41,0.00,CLR,,0.00,WeatherDisplay:10.37,2013-05-27 08:30:00,
2013-05-27 04:34:00,50.1,27.9,30.28,NW,306,0.0,0.0,42,0.00,CLR,,0.00,WeatherDisplay:10.37,2013-05-27 08:34:00,
2013-05-27 04:35:00,50.2,28.0,30.28,NW,306,0.0,0.0,42,0.00,CLR,,0.00,WeatherDisplay:10.37,2013-05-27 08:35:00,
2013-05-27 04:39:00,50.1,29.0,30.28,NW,306,0.0,0.0,44,0.00,CLR,,0.00,WeatherDisplay:10.37,2013-05-27 08:39:00,
2013-05-27 04:40:00,50.1,29.0,30.28,NW,306,0.0,0.0,44,0.00,CLR,,0.00,WeatherDisplay:10.37,2013-05-27 08:40:00,
2013-05-27 04:44:00,50.1,29.6,30.28,NW,306,0.0,0.0,45,0.00,CLR,,0.00,WeatherDisplay:10.37,2013-05-27 08:44:00,
2013-05-27 04:45:00,49.9,29.4,30.28,NW,306,0.0,0.0,45,0.00,CLR,,0.00,WeatherDisplay:10.37,2013-05-27 08:45:00,
2013-05-27 04:46:00,50.0,30.0,30.28,NW,306,0.0,0.0,46,0.00,CLR,,0.00,WeatherDisplay:10.37,2013-05-27 08:46:00,
2013-05-27 04:50:00,49.9,30.5,30.28,NW,306,0.0,0.0,47,0.00,CLR,,0.00,WeatherDisplay:10.37,2013-05-27 08:50:00,
2013-05-27 04:51:00,49.9,30.5,30.28,NW,306,0.0,0.0,47,0.00,CLR,,0.00,WeatherDisplay:10.37,2013-05-27 08:51:00,
2013-05-27 04:55:00,50.0,30.0,30.28,NW,306,0.0,0.0,46,0.00,CLR,,0.00,WeatherDisplay:10.37,2013-05-27 08:55:00,
2013-05-27 04:56:00,50.2,30.2,30.28,NW,306,0.0,0.0,46,0.00,CLR,,0.00,WeatherDisplay:10.37,2013-05-27 08:56:00,
2013-05-27 05:00:00,50.0,30.0,30.28,NW,306,0.0,0.0,46,0.00,CLR,,0.00,WeatherDisplay:10.37,2013-05-27 09:00:00,
2013-05-27 05:01:00,50.1,30.6,30.29,NW,306,0.0,0.0,47,0.00,CLR,,0.00,WeatherDisplay:10.37,2013-05-27 09:01:00,
2013-05-27 05:02:00,50.0,31.1,30.29,NW,306,0.0,0.0,48,0.00,CLR,,0.00,WeatherDisplay:10.37,2013-05-27 09:02:00,
2013-05-27 05:05:00,50.2,30.7,30.29,NW,306,0.0,0.0,47,0.00,CLR,,0.00,WeatherDisplay:10.37,2013-05-27 09:05:00,
2013-05-27 05:06:00,49.9,30.5,30.29,NW,306,0.0,0.0,47,0.00,CLR,,0.00,WeatherDisplay:10.37,2013-05-27 09:06:00,
2013-05-27 05:07:00,49.8,30.4,30.29,NW,306,0.0,0.0,47,0.00,CLR,,0.00,WeatherDisplay:10.37,2013-05-27 09:07:00,
2013-05-27 05:10:00,50.1,31.2,30.29,NW,306,0.0,0.0,48,0.00,CLR,,0.00,WeatherDisplay:10.37,2013-05-27 09:10:00,
2013-05-27 05:12:00,49.8,31.4,30.29,NW,306,0.0,0.0,49,0.00,CLR,,0.00,WeatherDisplay:10.37,2013-05-27 09:12:00,
2013-05-27 05:13:00,50.0,30.5,30.29,NW,306,0.0,0.0,47,0.00,CLR,,0.00,WeatherDisplay:10.37,2013-05-27 09:13:00,
2013-05-27 05:15:00,49.9,29.9,30.29,NW,306,0.0,0.0,46,0.00,CLR,,0.00,WeatherDisplay:10.37,2013-05-27 09:15:00,
2013-05-27 05:17:00,50.0,30.5,30.29,NW,306,0.0,0.0,47,0.00,CLR,,0.00,WeatherDisplay:10.37,2013-05-27 09:17:00,
2013-05-27 05:18:00,50.0,31.1,30.29,NW,306,0.0,0.0,48,0.00,CLR,,0.00,WeatherDisplay:10.37,2013-05-27 09:18:00,
2013-05-27 05:20:00,49.9,30.5,30.30,NW,306,0.0,0.0,47,0.00,CLR,,0.00,WeatherDisplay:10.37,2013-05-27 09:20:00,
2013-05-27 05:21:00,50.0,31.1,30.30,NW,306,0.0,0.0,48,0.00,CLR,,0.00,WeatherDisplay:10.37,2013-05-27 09:21:00,
2013-05-27 05:22:00,50.2,33.7,30.30,NW,306,0.0,0.0,53,0.00,CLR,,0.00,WeatherDisplay:10.37,2013-05-27 09:22:00,
2013-05-27 05:23:00,50.2,30.2,30.30,NW,306,0.0,0.0,46,0.00,CLR,,0.00,WeatherDisplay:10.37,2013-05-27 09:23:00,
2013-05-27 05:25:00,50.2,28.5,30.30,NNE,13,0.0,0.0,43,0.00,CLR,,0.00,WeatherDisplay:10.37,2013-05-27 09:25:00,
2013-05-27 05:26:00,50.1,28.4,30.30,NNE,13,0.0,0.0,43,0.00,CLR,,0.00,WeatherDisplay:10.37,2013-05-27 09:26:00,
2013-05-27 05:27:00,50.2,28.5,30.30,NNE,13,0.0,0.0,43,0.00,CLR,,0.00,WeatherDisplay:10.37,2013-05-27 09:27:00,
2013-05-27 05:29:00,50.0,28.4,30.30,NNE,13,0.0,0.0,43,0.00,CLR,,0.00,WeatherDisplay:10.37,2013-05-27 09:29:00,
2013-05-27 05:30:00,50.3,29.2,30.30,NNE,13,0.0,0.0,44,0.00,CLR,,0.00,WeatherDisplay:10.37,2013-05-27 09:30:00,
2013-05-27 05:31:00,50.1,29.0,30.30,NNE,13,0.0,0.0,44,0.00,CLR,,0.00,WeatherDisplay:10.37,2013-05-27 09:31:00,
2013-05-27 05:32:00,50.2,29.1,30.30,NNE,13,0.0,0.0,44,0.00,CLR,,0.00,WeatherDisplay:10.37,2013-05-27 09:32:00,
2013-05-27 05:34:00,50.2,30.7,30.30,NNE,13,0.0,0.0,47,0.00,CLR,,0.00,WeatherDisplay:10.37,2013-05-27 09:34:00,
2013-05-27 05:35:00,50.3,30.8,30.30,NNE,13,0.0,0.0,47,0.00,CLR,,0.00,WeatherDisplay:10.37,2013-05-27 09:35:00,
2013-05-27 05:36:00,50.2,30.2,30.30,NNE,13,0.0,0.0,46,0.00,CLR,,0.00,WeatherDisplay:10.37,2013-05-27 09:36:00,
2013-05-27 05:37:00,50.0,29.5,30.30,NNE,13,0.0,0.0,45,0.00,CLR,,0.00,WeatherDisplay:10.37,2013-05-27 09:37:00,
2013-05-27 05:39:00,50.3,31.3,30.30,NNE,13,0.0,0.0,48,0.00,CLR,,0.00,WeatherDisplay:10.37,2013-05-27 09:39:00,
2013-05-27 05:40:00,50.2,29.7,30.30,NNE,13,0.0,0.0,45,0.00,CLR,,0.00,WeatherDisplay:10.37,2013-05-27 09:40:00,
2013-05-27 05:41:00,50.1,29.6,30.30,NNE,13,0.0,0.0,45,0.00,CLR,,0.00,WeatherDisplay:10.37,2013-05-27 09:41:00,
2013-05-27 05:43:00,50.1,30.1,30.30,NNE,13,0.0,0.0,46,0.00,CLR,,0.00,WeatherDisplay:10.37,2013-05-27 09:43:00,
2013-05-27 05:44:00,50.1,31.7,30.30,NNE,13,0.0,0.0,49,0.00,CLR,,0.00,WeatherDisplay:10.37,2013-05-27 09:44:00,
2013-05-27 05:45:00,50.0,31.1,30.30,NNE,13,0.0,0.0,48,0.00,CLR,,0.00,WeatherDisplay:10.37,2013-05-27 09:45:00,
2013-05-27 05:46:00,50.2,30.7,30.30,NNE,13,0.0,0.0,47,0.00,CLR,,0.00,WeatherDisplay:10.37,2013-05-27 09:46:00,
2013-05-27 05:48:00,50.2,29.7,30.30,NNE,13,0.0,0.0,45,0.00,CLR,,0.00,WeatherDisplay:10.37,2013-05-27 09:48:00,
2013-05-27 05:49:00,50.2,30.2,30.30,NNE,13,0.0,0.0,46,0.00,CLR,,0.00,WeatherDisplay:10.37,2013-05-27 09:49:00,
2013-05-27 05:50:00,50.3,31.3,30.30,NNE,13,0.0,0.0,48,0.00,CLR,,0.00,WeatherDisplay:10.37,2013-05-27 09:50:00,
2013-05-27 05:51:00,50.1,29.0,30.30,NNE,13,0.0,0.0,44,0.00,CLR,,0.00,WeatherDisplay:10.37,2013-05-27 09:51:00,
2013-05-27 05:53:00,50.2,31.2,30.30,NNE,13,0.0,0.0,48,0.00,CLR,,0.00,WeatherDisplay:10.37,2013-05-27 09:53:00,
2013-05-27 05:54:00,50.1,30.6,30.30,NNE,13,0.0,0.0,47,0.00,CLR,,0.00,WeatherDisplay:10.37,2013-05-27 09:54:00,
2013-05-27 05:55:00,50.1,31.2,30.30,NNE,13,0.0,0.0,48,0.00,CLR,,0.00,WeatherDisplay:10.37,2013-05-27 09:55:00,
2013-05-27 05:56:00,50.1,30.1,30.30,NNE,13,0.0,0.0,46,0.00,CLR,,0.00,WeatherDisplay:10.37,2013-05-27 09:56:00,
2013-05-27 05:58:00,50.2,29.1,30.30,NNE,13,0.0,0.0,44,0.00,CLR,,0.00,WeatherDisplay:10.37,2013-05-27 09:58:00,
2013-05-27 05:59:00,50.1,29.0,30.30,NNE,13,0.0,0.0,44,0.00,CLR,,0.00,WeatherDisplay:10.37,2013-05-27 09:59:00,
2013-05-27 06:00:00,50.2,29.1,30.30,NNE,13,0.0,0.0,44,0.00,CLR,,0.00,WeatherDisplay:10.37,2013-05-27 10:00:00,
2013-05-27 06:01:00,50.2,29.7,30.30,NNE,13,0.0,0.0,45,0.00,CLR,,0.00,WeatherDisplay:10.37,2013-05-27 10:01:00,
2013-05-27 06:03:00,50.0,31.1,30.30,NNE,13,0.0,0.0,48,0.00,CLR,,0.00,WeatherDisplay:10.37,2013-05-27 10:03:00,
2013-05-27 06:05:00,50.0,30.0,30.30,NNE,13,0.0,0.0,46,0.00,CLR,,0.00,WeatherDisplay:10.37,2013-05-27 10:05:00,
2013-05-27 06:06:00,50.0,29.5,30.30,NNE,13,0.0,0.0,45,0.00,CLR,,0.00,WeatherDisplay:10.37,2013-05-27 10:06:00,
2013-05-27 06:07:00,49.8,30.4,30.30,NNE,13,0.0,0.0,47,0.00,CLR,,0.00,WeatherDisplay:10.37,2013-05-27 10:07:00,
2013-05-27 06:08:00,49.7,29.7,30.30,NNE,13,0.0,0.0,46,0.00,CLR,,0.00,WeatherDisplay:10.37,2013-05-27 10:08:00,
2013-05-27 06:10:00,49.5,29.6,30.30,NNE,13,0.0,0.0,46,0.00,CLR,,0.00,WeatherDisplay:10.37,2013-05-27 10:10:00,
2013-05-27 06:11:00,49.7,30.8,30.30,NNE,13,0.0,0.0,48,0.00,CLR,,0.00,WeatherDisplay:10.37,2013-05-27 10:11:00,
2013-05-27 06:12:00,49.7,30.3,30.30,NNE,13,0.0,0.0,47,0.00,CLR,,0.00,WeatherDisplay:10.37,2013-05-27 10:12:00,
2013-05-27 06:13:00,49.5,29.6,30.30,NNE,13,0.0,0.0,46,0.00,CLR,,0.00,WeatherDisplay:10.37,2013-05-27 10:13:00,
2013-05-27 06:14:00,49.5,30.1,30.30,NNE,13,0.0,0.0,47,0.00,CLR,,0.00,WeatherDisplay:10.37,2013-05-27 10:14:00,
2013-05-27 06:15:00,49.7,30.8,30.30,NNE,13,0.0,0.0,48,0.00,CLR,,0.00,WeatherDisplay:10.37,2013-05-27 10:15:00,
2013-05-27 06:16:00,49.6,29.6,30.30,NNE,13,0.0,0.0,46,0.00,CLR,,0.00,WeatherDisplay:10.37,2013-05-27 10:16:00,
2013-05-27 06:17:00,49.7,29.7,30.30,NNE,13,0.0,0.0,46,0.00,CLR,,0.00,WeatherDisplay:10.37,2013-05-27 10:17:00,
2013-05-27 06:18:00,49.6,30.2,30.30,NNE,13,0.0,0.0,47,0.00,CLR,,0.00,WeatherDisplay:10.37,2013-05-27 10:18:00,
2013-05-27 06:19:00,49.6,30.2,30.30,NNE,13,0.0,0.0,47,0.00,CLR,,0.00,WeatherDisplay:10.37,2013-05-27 10:19:00,
2013-05-27 06:20:00,49.7,30.8,30.30,NNE,13,0.0,0.0,48,0.00,CLR,,0.00,WeatherDisplay:10.37,2013-05-27 10:20:00,
2013-05-27 06:21:00,49.6,30.7,30.30,NNE,13,0.0,0.0,48,0.00,CLR,,0.00,WeatherDisplay:10.37,2013-05-27 10:21:00,
2013-05-27 06:22:00,49.8,30.9,30.30,NNE,13,0.0,0.0,48,0.00,CLR,,0.00,WeatherDisplay:10.37,2013-05-27 10:22:00,
2013-05-27 06:23:00,49.9,32.5,30.30,NNE,13,0.0,0.0,51,0.00,CLR,,0.00,WeatherDisplay:10.37,2013-05-27 10:23:00,
2013-05-27 06:25:00,49.6,32.7,30.30,NNE,13,0.0,0.0,52,0.00,CLR,,0.00,WeatherDisplay:10.37,2013-05-27 10:25:00,
2013-05-27 06:27:00,49.8,31.4,30.30,NNE,13,0.0,0.0,49,0.00,CLR,,0.00,WeatherDisplay:10.37,2013-05-27 10:27:00,
2013-05-27 06:29:00,49.9,31.5,30.30,NNE,13,0.0,0.0,49,0.00,CLR,,0.00,WeatherDisplay:10.37,2013-05-27 10:29:00,
2013-05-27 06:30:00,49.7,32.3,30.30,NNE,13,0.0,0.0,51,0.00,CLR,,0.00,WeatherDisplay:10.37,2013-05-27 10:30:00,
2013-05-27 06:31:00,50.1,33.1,30.30,NNE,13,0.0,0.0,52,0.00,CLR,,0.00,WeatherDisplay:10.37,2013-05-27 10:31:00,
2013-05-27 06:32:00,50.0,32.6,30.30,NNE,13,0.0,0.0,51,0.00,CLR,,0.00,WeatherDisplay:10.37,2013-05-27 10:32:00,
2013-05-27 06:34:00,50.1,30.1,30.31,NNE,13,0.0,0.0,46,0.00,CLR,,0.00,WeatherDisplay:10.37,2013-05-27 10:34:00,
2013-05-27 06:35:00,50.0,30.5,30.31,NNE,13,0.0,0.0,47,0.00,CLR,,0.00,WeatherDisplay:10.37,2013-05-27 10:35:00,
2013-05-27 06:36:00,49.7,29.2,30.31,NNE,13,0.0,0.0,45,0.00,CLR,,0.00,WeatherDisplay:10.37,2013-05-27 10:36:00,
2013-05-27 06:37:00,49.8,29.8,30.31,NNE,13,0.0,0.0,46,0.00,CLR,,0.00,WeatherDisplay:10.37,2013-05-27 10:37:00,
2013-05-27 06:38:00,50.0,30.5,30.31,NNE,13,0.0,0.0,47,0.00,CLR,,0.00,WeatherDisplay:10.37,2013-05-27 10:38:00,
2013-05-27 06:39:00,49.6,29.1,30.32,NNE,13,0.0,0.0,45,0.00,CLR,,0.00,WeatherDisplay:10.37,2013-05-27 10:39:00,
2013-05-27 06:40:00,50.0,29.5,30.31,NNE,13,0.0,0.0,45,0.00,CLR,,0.00,WeatherDisplay:10.37,2013-05-27 10:40:00,
2013-05-27 06:41:00,49.7,29.2,30.31,NNE,13,0.0,0.0,45,0.00,CLR,,0.00,WeatherDisplay:10.37,2013-05-27 10:41:00,
2013-05-27 06:42:00,49.7,29.7,30.32,NNE,13,0.0,0.0,46,0.00,CLR,,0.00,WeatherDisplay:10.37,2013-05-27 10:42:00,
2013-05-27 06:43:00,49.8,30.9,30.31,NNE,13,0.0,0.0,48,0.00,CLR,,0.00,WeatherDisplay:10.37,2013-05-27 10:43:00,
2013-05-27 06:45:00,49.6,31.7,30.32,NNE,13,0.0,0.0,50,0.00,CLR,,0.00,WeatherDisplay:10.37,2013-05-27 10:45:00,
2013-05-27 06:46:00,49.8,32.4,30.32,NNE,13,0.0,0.0,51,0.00,CLR,,0.00,WeatherDisplay:10.37,2013-05-27 10:46:00,
2013-05-27 06:48:00,49.7,30.3,30.32,NNE,13,0.0,0.0,47,0.00,CLR,,0.00,WeatherDisplay:10.37,2013-05-27 10:48:00,
2013-05-27 06:50:00,49.8,29.3,30.32,NNE,13,0.0,0.0,45,0.00,CLR,,0.00,WeatherDisplay:10.37,2013-05-27 10:50:00,
2013-05-27 06:51:00,49.6,28.6,30.32,NNE,13,0.0,0.0,44,0.00,CLR,,0.00,WeatherDisplay:10.37,2013-05-27 10:51:00,
2013-05-27 06:53:00,49.9,29.4,30.32,NNE,13,0.0,0.0,45,0.00,CLR,,0.00,WeatherDisplay:10.37,2013-05-27 10:53:00,
2013-05-27 06:54:00,50.1,29.0,30.32,NNE,13,0.0,0.0,44,0.00,CLR,,0.00,WeatherDisplay:10.37,2013-05-27 10:54:00,
2013-05-27 06:55:00,49.9,28.3,30.32,NNE,13,0.0,0.0,43,0.00,CLR,,0.00,WeatherDisplay:10.37,2013-05-27 10:55:00,
2013-05-27 06:56:00,49.9,27.1,30.32,NNE,13,0.0,0.0,41,0.00,CLR,,0.00,WeatherDisplay:10.37,2013-05-27 10:56:00,
2013-05-27 06:58:00,49.9,26.5,30.31,NNE,13,0.0,0.0,40,0.00,CLR,,0.00,WeatherDisplay:10.37,2013-05-27 10:58:00,
2013-05-27 06:59:00,50.0,26.6,30.31,NNE,13,0.0,0.0,40,0.00,CLR,,0.00,WeatherDisplay:10.37,2013-05-27 10:59:00,
2013-05-27 07:01:00,49.9,28.8,30.31,NNE,13,0.0,0.0,44,0.00,CLR,,0.00,WeatherDisplay:10.37,2013-05-27 11:01:00,
2013-05-27 07:02:00,50.1,28.4,30.32,NNE,13,0.0,0.0,43,0.00,CLR,,0.00,WeatherDisplay:10.37,2013-05-27 11:02:00,
2013-05-27 07:03:00,50.1,26.1,30.32,NNE,13,0.0,0.0,39,0.00,CLR,,0.00,WeatherDisplay:10.37,2013-05-27 11:03:00,
2013-05-27 07:04:00,50.2,25.5,30.32,NNE,13,0.0,0.0,38,0.00,CLR,,0.00,WeatherDisplay:10.37,2013-05-27 11:04:00,
2013-05-27 07:06:00,50.3,24.3,30.32,NNE,13,0.0,0.0,36,0.00,CLR,,0.00,WeatherDisplay:10.37,2013-05-27 11:06:00,
2013-05-27 07:07:00,50.1,22.8,30.32,NNE,13,0.0,0.0,34,0.00,CLR,,0.00,WeatherDisplay:10.37,2013-05-27 11:07:00,
2013-05-27 07:09:00,50.2,23.6,30.32,NNE,13,0.0,0.0,35,0.00,CLR,,0.00,WeatherDisplay:10.37,2013-05-27 11:09:00,
2013-05-27 07:11:00,50.7,22.6,30.32,NNE,13,0.0,0.0,33,0.00,CLR,,0.00,WeatherDisplay:10.37,2013-05-27 11:11:00,
2013-05-27 07:12:00,50.2,22.9,30.32,NNE,13,0.0,0.0,34,0.00,CLR,,0.00,WeatherDisplay:10.37,2013-05-27 11:12:00,
2013-05-27 07:14:00,50.3,24.3,30.32,NNE,13,0.0,0.0,36,0.00,CLR,,0.00,WeatherDisplay:10.37,2013-05-27 11:14:00,
2013-05-27 07:16:00,50.2,24.9,30.32,NNE,13,0.0,0.0,37,0.00,CLR,,0.00,WeatherDisplay:10.37,2013-05-27 11:16:00,
2013-05-27 07:17:00,50.3,24.3,30.32,NNE,13,0.0,0.0,36,0.00,CLR,,0.00,WeatherDisplay:10.37,2013-05-27 11:17:00,
2013-05-27 07:19:00,50.1,24.2,30.32,NNE,13,0.0,0.0,36,0.00,CLR,,0.00,WeatherDisplay:10.37,2013-05-27 11:19:00,
2013-05-27 07:21:00,50.2,22.9,30.32,NNE,13,0.0,0.0,34,0.00,CLR,,0.00,WeatherDisplay:10.37,2013-05-27 11:21:00,
2013-05-27 07:22:00,50.0,22.7,30.32,NNE,13,0.0,0.0,34,0.00,CLR,,0.00,WeatherDisplay:10.37,2013-05-27 11:22:00,
2013-05-27 07:24:00,50.3,23.0,30.32,NNE,13,0.0,0.0,34,0.00,CLR,,0.00,WeatherDisplay:10.37,2013-05-27 11:24:00,
2013-05-27 07:27:00,50.6,20.3,30.32,NNE,13,0.0,0.0,30,0.00,CLR,,0.00,WeatherDisplay:10.37,2013-05-27 11:27:00,
2013-05-27 07:29:00,50.1,19.8,30.32,NNE,13,0.0,0.0,30,0.00,CLR,,0.00,WeatherDisplay:10.37,2013-05-27 11:29:00,
2013-05-27 07:32:00,50.7,21.1,30.32,NNE,13,0.0,0.0,31,0.00,CLR,,0.00,WeatherDisplay:10.37,2013-05-27 11:32:00,
2013-05-27 07:33:00,50.2,20.7,30.32,NNE,13,0.0,0.0,31,0.00,CLR,,0.00,WeatherDisplay:10.37,2013-05-27 11:33:00,
2013-05-27 07:34:00,50.1,20.6,30.33,NNE,13,0.0,0.0,31,0.00,CLR,,0.00,WeatherDisplay:10.37,2013-05-27 11:34:00,
2013-05-27 07:37:00,50.3,21.5,30.33,NNE,13,0.0,0.0,32,0.00,CLR,,0.00,WeatherDisplay:10.37,2013-05-27 11:37:00,
2013-05-27 07:38:00,50.6,21.8,30.33,NNE,13,0.0,0.0,32,0.00,CLR,,0.00,WeatherDisplay:10.37,2013-05-27 11:38:00,
2013-05-27 07:39:00,50.6,21.0,30.32,NNE,13,0.0,0.0,31,0.00,CLR,,0.00,WeatherDisplay:10.37,2013-05-27 11:39:00,
2013-05-27 07:40:00,50.6,21.8,30.32,NNE,13,0.0,0.0,32,0.00,CLR,,0.00,WeatherDisplay:10.37,2013-05-27 11:40:00,
2013-05-27 07:42:00,50.9,19.7,30.32,NNE,13,0.0,0.0,29,0.00,CLR,,0.00,WeatherDisplay:10.37,2013-05-27 11:42:00,
2013-05-27 07:43:00,51.0,20.6,30.32,NNE,13,0.0,0.0,30,0.00,CLR,,0.00,WeatherDisplay:10.37,2013-05-27 11:43:00,
2013-05-27 07:45:00,52.3,18.4,30.32,WSW,253,0.1,2.3,26,0.00,CLR,,0.00,WeatherDisplay:10.37,2013-05-27 11:45:00,
2013-05-27 07:46:00,51.1,18.2,30.32,WSW,253,0.0,0.0,27,0.00,CLR,,0.00,WeatherDisplay:10.37,2013-05-27 11:46:00,
2013-05-27 07:47:00,51.3,19.3,30.32,WSW,253,0.0,0.0,28,0.00,CLR,,0.00,WeatherDisplay:10.37,2013-05-27 11:47:00,
2013-05-27 07:48:00,52.6,20.4,30.32,WSW,253,0.0,0.0,28,0.00,CLR,,0.00,WeatherDisplay:10.37,2013-05-27 11:48:00,
2013-05-27 07:50:00,51.3,18.4,30.32,WSW,253,0.0,0.0,27,0.00,CLR,,0.00,WeatherDisplay:10.37,2013-05-27 11:50:00,
2013-05-27 07:51:00,52.8,19.7,30.32,NW,306,4.4,5.8,27,0.00,CLR,,0.00,WeatherDisplay:10.37,2013-05-27 11:51:00,
2013-05-27 07:52:00,51.3,20.1,30.32,NW,326,0.2,4.6,29,0.00,CLR,,0.00,WeatherDisplay:10.37,2013-05-27 11:52:00,
2013-05-27 07:53:00,51.3,20.9,30.32,NW,326,0.0,0.0,30,0.00,CLR,,0.00,WeatherDisplay:10.37,2013-05-27 11:53:00,
2013-05-27 07:54:00,51.6,19.5,30.32,NW,326,0.0,0.0,28,0.00,CLR,,0.00,WeatherDisplay:10.37,2013-05-27 11:54:00,
2013-05-27 07:55:00,51.3,20.1,30.32,NW,326,0.0,0.0,29,0.00,CLR,,0.00,WeatherDisplay:10.37,2013-05-27 11:55:00,
2013-05-27 07:57:00,52.3,20.9,30.32,NW,326,0.0,0.0,29,0.00,CLR,,0.00,WeatherDisplay:10.37,2013-05-27 11:57:00,
2013-05-27 07:58:00,52.7,22.9,30.32,NW,326,0.0,0.0,31,0.00,CLR,,0.00,WeatherDisplay:10.37,2013-05-27 11:58:00,
2013-05-27 07:59:00,51.2,20.8,30.32,NW,309,3.3,4.6,30,0.00,CLR,,0.00,WeatherDisplay:10.37,2013-05-27 11:59:00,
2013-05-27 08:00:00,51.4,20.2,30.32,West,274,4.0,5.8,29,0.00,CLR,,0.00,WeatherDisplay:10.37,2013-05-27 12:00:00,
2013-05-27 08:02:00,51.4,21.7,30.32,West,281,4.5,6.4,31,0.00,CLR,,0.00,WeatherDisplay:10.37,2013-05-27 12:02:00,
2013-05-27 08:03:00,51.6,21.1,30.32,NW,308,2.5,6.9,30,0.00,CLR,,0.00,WeatherDisplay:10.37,2013-05-27 12:03:00,
2013-05-27 08:04:00,52.0,20.7,30.33,West,278,3.3,4.6,29,0.00,CLR,,0.00,WeatherDisplay:10.37,2013-05-27 12:04:00,
2013-05-27 08:05:00,52.1,21.6,30.33,West,278,0.8,5.8,30,0.00,CLR,,0.00,WeatherDisplay:10.37,2013-05-27 12:05:00,
2013-05-27 08:07:00,51.0,19.0,30.32,NW,319,1.0,5.8,28,0.00,CLR,,0.00,WeatherDisplay:10.37,2013-05-27 12:07:00,
2013-05-27 08:08:00,51.7,18.7,30.32,West,270,5.2,5.8,27,0.00,CLR,,0.00,WeatherDisplay:10.37,2013-05-27 12:08:00,
2013-05-27 08:09:00,52.8,20.5,30.32,West,270,1.6,6.9,28,0.00,CLR,,0.00,WeatherDisplay:10.37,2013-05-27 12:09:00,
2013-05-27 08:10:00,51.9,18.0,30.33,NW,308,1.2,2.3,26,0.00,CLR,,0.00,WeatherDisplay:10.37,2013-05-27 12:10:00,
2013-05-27 08:12:00,53.0,20.7,30.32,NW,308,0.0,2.3,28,0.00,CLR,,0.00,WeatherDisplay:10.37,2013-05-27 12:12:00,
2013-05-27 08:13:00,52.7,20.5,30.33,NW,322,0.8,3.5,28,0.00,CLR,,0.00,WeatherDisplay:10.37,2013-05-27 12:13:00,
2013-05-27 08:14:00,53.2,20.0,30.33,West,275,1.7,4.6,27,0.00,CLR,,0.00,WeatherDisplay:10.37,2013-05-27 12:14:00,
2013-05-27 08:15:00,52.6,20.4,30.33,West,281,0.5,4.6,28,0.00,CLR,,0.00,WeatherDisplay:10.37,2013-05-27 12:15:00,
2013-05-27 08:17:00,53.0,19.9,30.33,West,271,0.0,4.6,27,0.00,CLR,,0.00,WeatherDisplay:10.37,2013-05-27 12:17:00,
2013-05-27 08:18:00,53.4,21.9,30.33,West,271,0.0,0.0,29,0.00,CLR,,0.00,WeatherDisplay:10.37,2013-05-27 12:18:00,
2013-05-27 08:19:00,54.2,23.4,30.33,West,271,0.0,0.0,30,0.00,CLR,,0.00,WeatherDisplay:10.37,2013-05-27 12:19:00,
2013-05-27 08:20:00,52.9,20.6,30.33,West,271,0.0,0.0,28,0.00,CLR,,0.00,WeatherDisplay:10.37,2013-05-27 12:20:00,
2013-05-27 08:22:00,54.2,21.8,30.33,West,268,1.2,4.6,28,0.00,CLR,,0.00,WeatherDisplay:10.37,2013-05-27 12:22:00,
2013-05-27 08:23:00,54.4,19.3,30.33,NNW,333,1.0,3.5,25,0.00,CLR,,0.00,WeatherDisplay:10.37,2013-05-27 12:23:00,
2013-05-27 08:24:00,53.8,19.7,30.33,NNW,333,1.3,4.6,26,0.00,CLR,,0.00,WeatherDisplay:10.37,2013-05-27 12:24:00,
2013-05-27 08:25:00,54.7,21.3,30.33,NNW,333,0.0,3.5,27,0.00,CLR,,0.00,WeatherDisplay:10.37,2013-05-27 12:25:00,
2013-05-27 08:27:00,54.5,18.4,30.33,NNW,333,0.0,0.0,24,0.00,CLR,,0.00,WeatherDisplay:10.37,2013-05-27 12:27:00,
2013-05-27 08:29:00,55.6,18.3,30.33,West,270,1.8,4.6,23,0.00,CLR,,0.00,WeatherDisplay:10.37,2013-05-27 12:29:00,
2013-05-27 08:30:00,56.0,18.7,30.32,West,263,0.0,4.6,23,0.00,CLR,,0.00,WeatherDisplay:10.37,2013-05-27 12:30:00,
2013-05-27 08:31:00,55.9,18.6,30.32,West,263,0.0,0.0,23,0.00,CLR,,0.00,WeatherDisplay:10.37,2013-05-27 12:31:00,
2013-05-27 08:33:00,57.0,17.4,30.32,West,263,0.0,0.0,21,0.00,CLR,,0.00,WeatherDisplay:10.37,2013-05-27 12:33:00,
2013-05-27 08:34:00,57.3,18.7,30.32,West,263,0.0,0.0,22,0.00,CLR,,0.00,WeatherDisplay:10.37,2013-05-27 12:34:00,
2013-05-27 08:35:00,59.2,16.9,30.32,West,263,0.0,0.0,19,0.00,CLR,,0.00,WeatherDisplay:10.37,2013-05-27 12:35:00,
2013-05-27 08:36:00,59.2,14.3,30.32,West,263,0.0,0.0,17,0.00,CLR,,0.00,WeatherDisplay:10.37,2013-05-27 12:36:00,
2013-05-27 08:38:00,59.6,16.0,30.32,West,263,0.0,0.0,18,0.00,CLR,,0.00,WeatherDisplay:10.37,2013-05-27 12:38:00,
2013-05-27 08:39:00,59.8,14.8,30.32,West,263,0.4,2.7,17,0.00,CLR,,0.00,WeatherDisplay:10.37,2013-05-27 12:39:00,
2013-05-27 08:40:00,60.3,13.9,30.32,SSW,210,0.8,2.3,16,0.00,CLR,,0.00,WeatherDisplay:10.37,2013-05-27 12:40:00,
2013-05-27 08:41:00,59.5,15.9,30.32,SSW,210,0.0,0.0,18,0.00,CLR,,0.00,WeatherDisplay:10.37,2013-05-27 12:41:00,
2013-05-27 08:43:00,59.7,14.8,30.32,SSW,210,0.0,0.0,17,0.00,CLR,,0.00,WeatherDisplay:10.37,2013-05-27 12:43:00,
2013-05-27 08:44:00,60.6,15.5,30.32,SSW,210,0.0,0.0,17,0.00,CLR,,0.00,WeatherDisplay:10.37,2013-05-27 12:44:00,
2013-05-27 08:45:00,59.9,14.9,30.32,SSW,210,0.0,0.0,17,0.00,CLR,,0.00,WeatherDisplay:10.37,2013-05-27 12:45:00,
2013-05-27 08:47:00,60.8,14.3,30.32,SSW,210,0.0,0.0,16,0.00,CLR,,0.00,WeatherDisplay:10.37,2013-05-27 12:47:00,
2013-05-27 08:48:00,61.1,13.0,30.32,SSW,210,0.0,0.0,15,0.00,CLR,,0.00,WeatherDisplay:10.37,2013-05-27 12:48:00,
2013-05-27 08:49:00,61.5,14.8,30.32,SSW,210,0.0,0.0,16,0.00,CLR,,0.00,WeatherDisplay:10.37,2013-05-27 12:49:00,
2013-05-27 08:51:00,61.8,15.1,30.33,SSW,210,0.0,0.0,16,0.00,CLR,,0.00,WeatherDisplay:10.37,2013-05-27 12:51:00,
2013-05-27 08:52:00,61.9,15.1,30.32,WNW,302,1.2,4.5,16,0.00,CLR,,0.00,WeatherDisplay:10.37,2013-05-27 12:52:00,
2013-05-27 08:53:00,62.3,18.2,30.32,NW,318,0.8,3.5,18,0.00,CLR,,0.00,WeatherDisplay:10.37,2013-05-27 12:53:00,
2013-05-27 08:54:00,61.6,20.1,30.32,NW,319,0.6,4.7,20,0.00,CLR,,0.00,WeatherDisplay:10.37,2013-05-27 12:54:00,
2013-05-27 08:56:00,61.5,16.2,30.32,NW,308,1.5,5.2,17,0.00,CLR,,0.00,WeatherDisplay:10.37,2013-05-27 12:56:00,
2013-05-27 08:57:00,61.4,14.7,30.32,NW,308,3.6,5.8,16,0.00,CLR,,0.00,WeatherDisplay:10.37,2013-05-27 12:57:00,
2013-05-27 08:58:00,61.2,16.0,30.32,NW,315,1.5,4.6,17,0.00,CLR,,0.00,WeatherDisplay:10.37,2013-05-27 12:58:00,
2013-05-27 08:59:00,61.5,14.8,30.32,WNW,298,0.2,3.0,16,0.00,CLR,,0.00,WeatherDisplay:10.37,2013-05-27 12:59:00,
2013-05-27 09:01:00,61.8,16.5,30.32,NW,316,0.0,3.5,17,0.00,CLR,,0.00,WeatherDisplay:10.37,2013-05-27 13:01:00,
2013-05-27 09:02:00,61.1,15.9,30.32,WNW,296,0.3,5.8,17,0.00,CLR,,0.00,WeatherDisplay:10.37,2013-05-27 13:02:00,
2013-05-27 09:03:00,61.1,17.2,30.32,WNW,287,4.2,5.8,18,0.00,CLR,,0.00,WeatherDisplay:10.37,2013-05-27 13:03:00,
2013-05-27 09:04:00,61.3,19.8,30.32,NW,320,1.4,6.8,20,0.00,CLR,,0.00,WeatherDisplay:10.37,2013-05-27 13:04:00,
2013-05-27 09:06:00,61.0,17.1,30.32,West,278,2.6,6.9,18,0.00,CLR,,0.00,WeatherDisplay:10.37,2013-05-27 13:06:00,
2013-05-27 09:07:00,61.4,16.1,30.32,WNW,291,3.5,5.8,17,0.00,CLR,,0.00,WeatherDisplay:10.37,2013-05-27 13:07:00,
2013-05-27 09:08:00,61.7,16.4,30.32,West,270,1.5,4.6,17,0.00,CLR,,0.00,WeatherDisplay:10.37,2013-05-27 13:08:00,
2013-05-27 09:10:00,61.5,14.8,30.32,West,270,0.0,0.0,16,0.00,CLR,,0.00,WeatherDisplay:10.37,2013-05-27 13:10:00,
2013-05-27 09:11:00,62.1,16.7,30.32,West,270,0.0,0.0,17,0.00,CLR,,0.00,WeatherDisplay:10.37,2013-05-27 13:11:00,
2013-05-27 09:12:00,61.8,15.1,30.32,West,270,0.0,0.0,16,0.00,CLR,,0.00,WeatherDisplay:10.37,2013-05-27 13:12:00,
2013-05-27 09:13:00,61.8,16.5,30.32,West,270,0.0,0.0,17,0.00,CLR,,0.00,WeatherDisplay:10.37,2013-05-27 13:13:00,
2013-05-27 09:15:00,62.1,20.5,30.32,West,270,0.3,0.0,20,0.00,CLR,,0.00,WeatherDisplay:10.37,2013-05-27 13:15:00,
2013-05-27 09:17:00,62.2,16.8,30.32,West,270,0.0,0.0,17,0.00,CLR,,0.00,WeatherDisplay:10.37,2013-05-27 13:17:00,
2013-05-27 09:18:00,61.8,17.8,30.32,West,270,0.0,0.0,18,0.00,CLR,,0.00,WeatherDisplay:10.37,2013-05-27 13:18:00,
2013-05-27 09:21:00,62.5,19.6,30.32,West,270,0.0,0.0,19,0.00,CLR,,0.00,WeatherDisplay:10.37,2013-05-27 13:21:00,
2013-05-27 09:22:00,62.3,16.9,30.33,West,270,0.0,0.0,17,0.00,CLR,,0.00,WeatherDisplay:10.37,2013-05-27 13:22:00,
2013-05-27 09:23:00,62.7,15.8,30.33,West,270,0.0,0.0,16,0.00,CLR,,0.00,WeatherDisplay:10.37,2013-05-27 13:23:00,
2013-05-27 09:26:00,62.6,15.7,30.32,NNW,339,2.1,4.6,16,0.00,CLR,,0.00,WeatherDisplay:10.37,2013-05-27 13:26:00,
2013-05-27 09:27:00,63.3,17.7,30.32,NNW,339,0.0,3.5,17,0.00,CLR,,0.00,WeatherDisplay:10.37,2013-05-27 13:27:00,
2013-05-27 09:28:00,63.3,13.2,30.32,NW,320,0.1,6.1,14,0.00,CLR,,0.00,WeatherDisplay:10.37,2013-05-27 13:28:00,
2013-05-27 09:31:00,63.5,9.9,30.32,NNW,329,0.0,0.0,12,0.00,CLR,,0.00,WeatherDisplay:10.37,2013-05-27 13:31:00,
2013-05-27 09:32:00,63.8,11.9,30.32,NNW,329,0.0,0.0,13,0.00,CLR,,0.00,WeatherDisplay:10.37,2013-05-27 13:32:00,
2013-05-27 09:33:00,63.9,12.0,30.32,NNW,329,0.0,0.0,13,0.00,CLR,,0.00,WeatherDisplay:10.37,2013-05-27 13:33:00,
2013-05-27 09:36:00,64.0,8.4,30.32,West,281,2.7,6.9,11,0.00,CLR,,0.00,WeatherDisplay:10.37,2013-05-27 13:36:00,
2013-05-27 09:37:00,63.5,8.0,30.32,West,281,0.0,4.6,11,0.00,CLR,,0.00,WeatherDisplay:10.37,2013-05-27 13:37:00,
2013-05-27 09:38:00,63.7,8.1,30.32,West,281,0.0,0.0,11,0.00,CLR,,0.00,WeatherDisplay:10.37,2013-05-27 13:38:00,
2013-05-27 09:39:00,64.0,8.4,30.32,West,281,0.0,0.0,11,0.00,CLR,,0.00,WeatherDisplay:10.37,2013-05-27 13:39:00,
2013-05-27 09:41:00,64.6,6.7,30.32,West,281,0.0,0.0,10,0.00,CLR,,0.00,WeatherDisplay:10.37,2013-05-27 13:41:00,
2013-05-27 09:42:00,65.2,4.9,30.32,West,281,0.0,0.0,9,0.00,CLR,,0.00,WeatherDisplay:10.37,2013-05-27 13:42:00,
2013-05-27 09:43:00,65.1,4.8,30.32,West,281,0.0,0.0,9,0.00,CLR,,0.00,WeatherDisplay:10.37,2013-05-27 13:43:00,
2013-05-27 09:44:00,65.8,2.7,30.32,West,281,0.0,0.0,8,0.00,CLR,,0.00,WeatherDisplay:10.37,2013-05-27 13:44:00,
2013-05-27 09:46:00,65.6,5.2,30.32,SW,224,0.0,3.5,9,0.00,CLR,,0.00,WeatherDisplay:10.37,2013-05-27 13:46:00,
2013-05-27 09:47:00,65.8,7.6,30.32,SW,224,0.0,3.5,10,0.00,CLR,,0.00,WeatherDisplay:10.37,2013-05-27 13:47:00,
2013-05-27 09:48:00,65.9,5.4,30.32,SW,224,0.0,0.0,9,0.00,CLR,,0.00,WeatherDisplay:10.37,2013-05-27 13:48:00,
2013-05-27 09:49:00,65.2,7.2,30.32,SW,224,0.0,0.0,10,0.00,CLR,,0.00,WeatherDisplay:10.37,2013-05-27 13:49:00,
2013-05-27 09:51:00,64.7,14.3,30.32,SW,224,0.0,0.0,14,0.00,CLR,,0.00,WeatherDisplay:10.37,2013-05-27 13:51:00,
2013-05-27 09:52:00,65.0,12.9,30.32,SW,224,0.0,0.0,13,0.00,CLR,,0.00,WeatherDisplay:10.37,2013-05-27 13:52:00,
2013-05-27 09:53:00,64.8,10.9,30.32,SW,224,0.0,0.0,12,0.00,CLR,,0.00,WeatherDisplay:10.37,2013-05-27 13:53:00,
2013-05-27 09:54:00,63.9,10.2,30.32,SW,224,0.0,0.0,12,0.00,CLR,,0.00,WeatherDisplay:10.37,2013-05-27 13:54:00,
2013-05-27 09:57:00,64.1,12.2,30.32,SW,224,0.0,0.0,13,0.00,CLR,,0.00,WeatherDisplay:10.37,2013-05-27 13:57:00,
2013-05-27 09:58:00,63.9,13.7,30.32,SW,224,0.0,0.0,14,0.00,CLR,,0.00,WeatherDisplay:10.37,2013-05-27 13:58:00,
2013-05-27 09:59:00,63.8,10.1,30.32,SW,224,0.0,0.0,12,0.00,CLR,,0.00,WeatherDisplay:10.37,2013-05-27 13:59:00,
2013-05-27 10:02:00,63.8,13.6,30.32,SW,224,0.0,0.0,14,0.00,CLR,,0.00,WeatherDisplay:10.37,2013-05-27 14:02:00,
2013-05-27 10:03:00,63.8,13.6,30.32,SW,224,0.0,0.0,14,0.00,CLR,,0.00,WeatherDisplay:10.37,2013-05-27 14:03:00,
2013-05-27 10:04:00,64.2,13.9,30.32,SW,224,0.0,0.0,14,0.00,CLR,,0.00,WeatherDisplay:10.37,2013-05-27 14:04:00,
2013-05-27 10:05:00,64.6,15.8,30.32,SW,224,0.0,0.0,15,0.00,CLR,,0.00,WeatherDisplay:10.37,2013-05-27 14:05:00,
2013-05-27 10:07:00,64.9,12.8,30.32,NW,309,0.4,3.5,13,0.00,CLR,,0.00,WeatherDisplay:10.37,2013-05-27 14:07:00,
2013-05-27 10:08:00,65.0,12.9,30.32,NW,309,0.7,3.5,13,0.00,CLR,,0.00,WeatherDisplay:10.37,2013-05-27 14:08:00,
2013-05-27 10:09:00,64.9,12.8,30.32,NW,309,0.0,3.5,13,0.00,CLR,,0.00,WeatherDisplay:10.37,2013-05-27 14:09:00,
2013-05-27 10:10:00,65.3,9.4,30.32,West,278,0.6,0.0,11,0.00,CLR,,0.00,WeatherDisplay:10.37,2013-05-27 14:10:00,
2013-05-27 10:13:00,65.2,9.3,30.32,NNW,329,1.4,4.2,11,0.00,CLR,,0.00,WeatherDisplay:10.37,2013-05-27 14:13:00,
2013-05-27 10:14:00,65.0,11.1,30.32,NNW,329,0.0,4.6,12,0.00,CLR,,0.00,WeatherDisplay:10.37,2013-05-27 14:14:00,
2013-05-27 10:15:00,64.9,11.0,30.32,NNW,329,0.0,0.0,12,0.00,CLR,,0.00,WeatherDisplay:10.37,2013-05-27 14:15:00,
2013-05-27 10:18:00,65.6,7.5,30.32,NNW,329,0.0,0.0,10,0.00,CLR,,0.00,WeatherDisplay:10.37,2013-05-27 14:18:00,
2013-05-27 10:19:00,65.9,5.4,30.32,WNW,284,1.6,4.6,9,0.00,CLR,,0.00,WeatherDisplay:10.37,2013-05-27 14:19:00,
2013-05-27 10:20:00,65.4,5.0,30.32,West,261,0.2,4.6,9,0.00,CLR,,0.00,WeatherDisplay:10.37,2013-05-27 14:20:00,
2013-05-27 10:23:00,66.1,5.5,30.32,WNW,287,0.0,0.0,9,0.00,CLR,,0.00,WeatherDisplay:10.37,2013-05-27 14:23:00,
2013-05-27 10:24:00,66.2,3.0,30.32,WNW,287,0.0,0.0,8,0.00,CLR,,0.00,WeatherDisplay:10.37,2013-05-27 14:24:00,
2013-05-27 10:25:00,66.0,5.5,30.31,WNW,287,0.0,0.0,9,0.00,CLR,,0.00,WeatherDisplay:10.37,2013-05-27 14:25:00,
2013-05-27 10:28:00,65.6,9.6,30.32,WNW,287,0.0,0.0,11,0.00,CLR,,0.00,WeatherDisplay:10.37,2013-05-27 14:28:00,
2013-05-27 10:29:00,65.7,9.7,30.32,WNW,287,0.0,0.0,11,0.00,CLR,,0.00,WeatherDisplay:10.37,2013-05-27 14:29:00,
2013-05-27 10:30:00,65.2,7.2,30.32,WNW,287,0.0,0.0,10,0.00,CLR,,0.00,WeatherDisplay:10.37,2013-05-27 14:30:00,
2013-05-27 10:33:00,65.6,7.5,30.32,NW,305,0.0,0.0,10,0.00,CLR,,0.00,WeatherDisplay:10.37,2013-05-27 14:33:00,
2013-05-27 10:34:00,65.1,7.1,30.32,NW,305,0.0,0.0,10,0.00,CLR,,0.00,WeatherDisplay:10.37,2013-05-27 14:34:00,
2013-05-27 10:35:00,65.4,9.4,30.32,NW,305,0.0,0.0,11,0.00,CLR,,0.00,WeatherDisplay:10.37,2013-05-27 14:35:00,
2013-05-27 10:38:00,65.6,5.2,30.32,NW,305,0.0,0.0,9,0.00,CLR,,0.00,WeatherDisplay:10.37,2013-05-27 14:38:00,
2013-05-27 10:39:00,65.9,5.4,30.32,NW,305,0.0,0.0,9,0.00,CLR,,0.00,WeatherDisplay:10.37,2013-05-27 14:39:00,
2013-05-27 10:40:00,66.1,10.0,30.32,NW,305,0.0,0.0,11,0.00,CLR,,0.00,WeatherDisplay:10.37,2013-05-27 14:40:00,
2013-05-27 10:43:00,66.7,3.4,30.32,North,360,3.0,4.6,8,0.00,CLR,,0.00,WeatherDisplay:10.37,2013-05-27 14:43:00,
2013-05-27 10:44:00,66.4,8.1,30.32,North,360,1.2,4.6,10,0.00,CLR,,0.00,WeatherDisplay:10.37,2013-05-27 14:44:00,
2013-05-27 10:45:00,66.4,5.8,30.32,WNW,285,1.4,3.5,9,0.00,CLR,,0.00,WeatherDisplay:10.37,2013-05-27 14:45:00,
2013-05-27 10:48:00,66.4,8.1,30.32,South,181,0.2,3.4,10,0.00,CLR,,0.00,WeatherDisplay:10.37,2013-05-27 14:48:00,
2013-05-27 10:49:00,66.9,8.5,30.32,SSW,203,1.7,2.9,10,0.00,CLR,,0.00,WeatherDisplay:10.37,2013-05-27 14:49:00,
2013-05-27 10:50:00,66.5,5.8,30.32,SSW,203,0.2,3.5,9,0.00,CLR,,0.00,WeatherDisplay:10.37,2013-05-27 14:50:00,
2013-05-27 10:51:00,66.8,6.1,30.32,SSW,203,0.0,0.0,9,0.00,CLR,,0.00,WeatherDisplay:10.37,2013-05-27 14:51:00,
2013-05-27 10:54:00,67.1,8.6,30.32,SSW,203,0.0,0.0,10,0.00,CLR,,0.00,WeatherDisplay:10.37,2013-05-27 14:54:00,
2013-05-27 10:55:00,67.3,1.0,30.32,SSW,203,0.0,0.0,7,0.00,CLR,,0.00,WeatherDisplay:10.37,2013-05-27 14:55:00,
2013-05-27 10:56:00,67.4,3.9,30.32,SSW,203,0.0,0.0,8,0.00,CLR,,0.00,WeatherDisplay:10.37,2013-05-27 14:56:00,
2013-05-27 10:59:00,67.2,3.8,30.32,SSW,203,0.0,0.0,8,0.00,CLR,,0.00,WeatherDisplay:10.37,2013-05-27 14:59:00,
2013-05-27 11:00:00,67.4,3.9,30.32,SSW,203,0.0,0.0,8,0.00,CLR,,0.00,WeatherDisplay:10.37,2013-05-27 15:00:00,
2013-05-27 11:01:00,67.0,6.2,30.32,SSW,203,0.0,0.0,9,0.00,CLR,,0.00,WeatherDisplay:10.37,2013-05-27 15:01:00,
2013-05-27 11:02:00,67.1,6.3,30.31,SSW,203,0.0,0.0,9,0.00,CLR,,0.00,WeatherDisplay:10.37,2013-05-27 15:02:00,
2013-05-27 11:04:00,67.1,6.3,30.31,SSW,203,0.0,0.0,9,0.00,CLR,,0.00,WeatherDisplay:10.37,2013-05-27 15:04:00,
2013-05-27 11:05:00,67.2,6.4,30.31,SSW,203,0.0,0.0,9,0.00,CLR,,0.00,WeatherDisplay:10.37,2013-05-27 15:05:00,
2013-05-27 11:06:00,66.8,8.4,30.31,SSW,203,0.0,0.0,10,0.00,CLR,,0.00,WeatherDisplay:10.37,2013-05-27 15:06:00,
2013-05-27 11:07:00,66.9,6.1,30.32,SSW,203,0.0,0.0,9,0.00,CLR,,0.00,WeatherDisplay:10.37,2013-05-27 15:07:00,
2013-05-27 11:09:00,67.1,8.6,30.32,SSW,203,0.0,0.0,10,0.00,CLR,,0.00,WeatherDisplay:10.37,2013-05-27 15:09:00,
2013-05-27 11:10:00,67.1,6.3,30.32,SSW,203,0.0,0.0,9,0.00,CLR,,0.00,WeatherDisplay:10.37,2013-05-27 15:10:00,
2013-05-27 11:12:00,66.5,5.8,30.32,SSW,203,0.0,0.0,9,0.00,CLR,,0.00,WeatherDisplay:10.37,2013-05-27 15:12:00,
2013-05-27 11:14:00,66.4,8.1,30.31,SSW,203,0.0,0.0,10,0.00,CLR,,0.00,WeatherDisplay:10.37,2013-05-27 15:14:00,
2013-05-27 11:15:00,66.4,8.1,30.32,SSW,203,0.0,0.0,10,0.00,CLR,,0.00,WeatherDisplay:10.37,2013-05-27 15:15:00,
2013-05-27 11:17:00,67.3,8.8,30.31,SSW,203,0.0,0.0,10,0.00,CLR,,0.00,WeatherDisplay:10.37,2013-05-27 15:17:00,
2013-05-27 11:20:00,67.7,4.2,30.31,SSW,203,0.0,0.0,8,0.00,CLR,,0.00,WeatherDisplay:10.37,2013-05-27 15:20:00,
2013-05-27 11:22:00,67.9,4.3,30.31,SSW,203,0.0,0.0,8,0.00,CLR,,0.00,WeatherDisplay:10.37,2013-05-27 15:22:00,
2013-05-27 11:25:00,67.8,6.8,30.32,WNW,291,1.2,3.4,9,0.00,CLR,,0.00,WeatherDisplay:10.37,2013-05-27 15:25:00,
2013-05-27 11:28:00,68.0,9.3,30.32,SE,130,3.6,4.6,10,0.00,CLR,,0.00,WeatherDisplay:10.37,2013-05-27 15:28:00,
2013-05-27 11:30:00,68.6,4.8,30.32,SE,130,0.0,0.0,8,0.00,CLR,,0.00,WeatherDisplay:10.37,2013-05-27 15:30:00,
2013-05-27 11:31:00,68.5,1.9,30.32,SE,130,0.0,0.0,7,0.00,CLR,,0.00,WeatherDisplay:10.37,2013-05-27 15:31:00,
2013-05-27 11:33:00,68.5,1.9,30.31,SE,130,0.0,0.0,7,0.00,CLR,,0.00,WeatherDisplay:10.37,2013-05-27 15:33:00,
2013-05-27 11:36:00,68.9,7.7,30.31,SE,130,0.0,0.0,9,0.00,CLR,,0.00,WeatherDisplay:10.37,2013-05-27 15:36:00,
2013-05-27 11:38:00,68.6,4.8,30.32,SE,133,1.9,5.8,8,0.00,CLR,,0.00,WeatherDisplay:10.37,2013-05-27 15:38:00,
2013-05-27 11:40:00,68.5,1.9,30.32,SE,133,0.0,0.0,7,0.00,CLR,,0.00,WeatherDisplay:10.37,2013-05-27 15:40:00,
2013-05-27 11:41:00,68.1,7.1,30.32,SE,133,0.0,0.0,9,0.00,CLR,,0.00,WeatherDisplay:10.37,2013-05-27 15:41:00,
2013-05-27 11:43:00,68.3,11.7,30.32,SE,133,0.0,0.0,11,0.00,CLR,,0.00,WeatherDisplay:10.37,2013-05-27 15:43:00,
2013-05-27 11:45:00,68.0,9.3,30.32,West,265,2.6,4.6,10,0.00,CLR,,0.00,WeatherDisplay:10.37,2013-05-27 15:45:00,
2013-05-27 11:46:00,68.3,9.5,30.32,SW,227,1.2,4.6,10,0.00,CLR,,0.00,WeatherDisplay:10.37,2013-05-27 15:46:00,
2013-05-27 11:47:00,68.4,9.6,30.32,SW,227,0.6,3.5,10,0.00,CLR,,0.00,WeatherDisplay:10.37,2013-05-27 15:47:00,
2013-05-27 11:48:00,68.4,7.3,30.32,SW,227,0.0,0.0,9,0.00,CLR,,0.00,WeatherDisplay:10.37,2013-05-27 15:48:00,
2013-05-27 11:50:00,69.1,7.8,30.32,SW,227,0.0,0.0,9,0.00,CLR,,0.00,WeatherDisplay:10.37,2013-05-27 15:50:00,
2013-05-27 11:51:00,69.5,8.1,30.32,SW,227,0.0,0.0,9,0.00,CLR,,0.00,WeatherDisplay:10.37,2013-05-27 15:51:00,
2013-05-27 11:52:00,69.5,5.5,30.31,SW,227,0.0,0.0,8,0.00,CLR,,0.00,WeatherDisplay:10.37,2013-05-27 15:52:00,
2013-05-27 11:53:00,69.8,2.8,30.32,SW,227,0.0,0.0,7,0.00,CLR,,0.00,WeatherDisplay:10.37,2013-05-27 15:53:00,
2013-05-27 11:55:00,69.8,2.8,30.31,South,184,0.6,3.4,7,0.00,CLR,,0.00,WeatherDisplay:10.37,2013-05-27 15:55:00,
2013-05-27 11:56:00,70.7,3.5,30.31,SSE,147,0.0,2.3,7,0.00,CLR,,0.00,WeatherDisplay:10.37,2013-05-27 15:56:00,
2013-05-27 11:57:00,70.7,3.5,30.31,SSE,147,0.0,0.0,7,0.00,CLR,,0.00,WeatherDisplay:10.37,2013-05-27 15:57:00,
2013-05-27 11:58:00,70.7,3.5,30.31,SSE,147,0.0,0.0,7,0.00,CLR,,0.00,WeatherDisplay:10.37,2013-05-27 15:58:00,
2013-05-27 12:00:00,71.1,3.8,30.31,SSE,147,0.0,0.0,7,0.00,CLR,,0.00,WeatherDisplay:10.37,2013-05-27 16:00:00,
2013-05-27 12:01:00,71.0,9.3,30.31,SSE,147,0.0,0.0,9,0.00,CLR,,0.00,WeatherDisplay:10.37,2013-05-27 16:01:00,
2013-05-27 12:02:00,70.9,3.6,30.31,SSE,147,0.0,0.0,7,0.00,CLR,,0.00,WeatherDisplay:10.37,2013-05-27 16:02:00,
2013-05-27 12:04:00,71.2,0.5,30.31,SSE,147,0.0,0.0,6,0.00,CLR,,0.00,WeatherDisplay:10.37,2013-05-27 16:04:00,
2013-05-27 12:06:00,71.2,3.9,30.32,SSE,147,0.0,0.0,7,0.00,CLR,,0.00,WeatherDisplay:10.37,2013-05-27 16:06:00,
2013-05-27 12:07:00,71.1,3.8,30.32,SSE,147,0.0,0.0,7,0.00,CLR,,0.00,WeatherDisplay:10.37,2013-05-27 16:07:00,
2013-05-27 12:09:00,70.6,0.1,30.31,East,85,3.0,3.5,6,0.00,CLR,,0.00,WeatherDisplay:10.37,2013-05-27 16:09:00,
2013-05-27 12:11:00,71.2,3.9,30.31,East,85,0.0,0.0,7,0.00,CLR,,0.00,WeatherDisplay:10.37,2013-05-27 16:11:00,
2013-05-27 12:12:00,70.9,3.6,30.31,East,85,0.0,0.0,7,0.00,CLR,,0.00,WeatherDisplay:10.37,2013-05-27 16:12:00,
2013-05-27 12:13:00,70.1,3.1,30.31,East,85,0.0,0.0,7,0.00,CLR,,0.00,WeatherDisplay:10.37,2013-05-27 16:13:00,
2013-05-27 12:14:00,70.6,0.1,30.31,East,85,0.0,0.0,6,0.00,CLR,,0.00,WeatherDisplay:10.37,2013-05-27 16:14:00,
2013-05-27 12:16:00,70.5,3.3,30.31,East,85,0.0,0.0,7,0.00,CLR,,0.00,WeatherDisplay:10.37,2013-05-27 16:16:00,
2013-05-27 12:17:00,70.9,3.6,30.31,East,85,0.0,0.0,7,0.00,CLR,,0.00,WeatherDisplay:10.37,2013-05-27 16:17:00,
2013-05-27 12:18:00,70.7,0.2,30.31,East,85,0.0,0.0,6,0.00,CLR,,0.00,WeatherDisplay:10.37,2013-05-27 16:18:00,
2013-05-27 12:20:00,70.4,0.0,30.31,East,88,4.9,6.9,6,0.00,CLR,,0.00,WeatherDisplay:10.37,2013-05-27 16:20:00,
2013-05-27 12:21:00,70.7,3.5,30.31,ESE,102,0.5,3.5,7,0.00,CLR,,0.00,WeatherDisplay:10.37,2013-05-27 16:21:00,
2013-05-27 12:22:00,70.5,3.3,30.30,ESE,102,0.0,0.0,7,0.00,CLR,,0.00,WeatherDisplay:10.37,2013-05-27 16:22:00,
2013-05-27 12:23:00,69.8,2.8,30.31,ESE,110,2.1,3.5,7,0.00,CLR,,0.00,WeatherDisplay:10.37,2013-05-27 16:23:00,
2013-05-27 12:25:00,69.8,10.7,30.30,ESE,110,0.0,4.6,10,0.00,CLR,,0.00,WeatherDisplay:10.37,2013-05-27 16:25:00,
2013-05-27 12:26:00,69.2,2.4,30.31,ESE,110,0.0,0.0,7,0.00,CLR,,0.00,WeatherDisplay:10.37,2013-05-27 16:26:00,
2013-05-27 12:27:00,69.2,5.3,30.31,ESE,110,0.0,0.0,8,0.00,CLR,,0.00,WeatherDisplay:10.37,2013-05-27 16:27:00,
2013-05-27 12:28:00,69.4,5.4,30.30,ESE,110,0.0,0.0,8,0.00,CLR,,0.00,WeatherDisplay:10.37,2013-05-27 16:28:00,
2013-05-27 12:30:00,69.3,5.4,30.30,ESE,110,0.0,0.0,8,0.00,CLR,,0.00,WeatherDisplay:10.37,2013-05-27 16:30:00,
2013-05-27 12:32:00,69.4,8.0,30.30,ESE,110,0.0,0.0,9,0.00,CLR,,0.00,WeatherDisplay:10.37,2013-05-27 16:32:00,
2013-05-27 12:33:00,69.5,2.6,30.30,ESE,110,0.0,0.0,7,0.00,CLR,,0.00,WeatherDisplay:10.37,2013-05-27 16:33:00,
2013-05-27 12:34:00,69.3,5.4,30.30,ESE,110,0.0,0.0,8,0.00,CLR,,0.00,WeatherDisplay:10.37,2013-05-27 16:34:00,
2013-05-27 12:35:00,70.0,10.9,30.30,ESE,112,1.2,6.0,10,0.00,CLR,,0.00,WeatherDisplay:10.37,2013-05-27 16:35:00,
2013-05-27 12:37:00,70.6,3.4,30.30,East,79,1.6,6.0,7,0.00,CLR,,0.00,WeatherDisplay:10.37,2013-05-27 16:37:00,
2013-05-27 12:38:00,70.2,-0.2,30.30,ENE,78,4.3,5.8,6,0.00,CLR,,0.00,WeatherDisplay:10.37,2013-05-27 16:38:00,
2013-05-27 12:39:00,69.8,-0.5,30.30,SE,130,5.4,6.9,6,0.00,CLR,,0.00,WeatherDisplay:10.37,2013-05-27 16:39:00,
2013-05-27 12:40:00,69.6,-0.6,30.30,ENE,69,4.8,5.8,6,0.00,CLR,,0.00,WeatherDisplay:10.37,2013-05-27 16:40:00,
2013-05-27 12:42:00,70.0,3.0,30.30,ENE,72,0.0,0.0,7,0.00,CLR,,0.00,WeatherDisplay:10.37,2013-05-27 16:42:00,
2013-05-27 12:43:00,70.2,3.1,30.30,ENE,72,0.0,0.0,7,0.00,CLR,,0.00,WeatherDisplay:10.37,2013-05-27 16:43:00,
2013-05-27 12:44:00,69.9,2.9,30.30,ENE,72,0.0,0.0,7,0.00,CLR,,0.00,WeatherDisplay:10.37,2013-05-27 16:44:00,
2013-05-27 12:45:00,70.1,3.1,30.30,East,95,2.2,6.8,7,0.00,CLR,,0.00,WeatherDisplay:10.37,2013-05-27 16:45:00,
2013-05-27 12:47:00,70.7,3.5,30.30,ESE,117,0.0,3.5,7,0.00,CLR,,0.00,WeatherDisplay:10.37,2013-05-27 16:47:00,
2013-05-27 12:48:00,70.8,3.6,30.30,NE,52,1.5,3.5,7,0.00,CLR,,0.00,WeatherDisplay:10.37,2013-05-27 16:48:00,
2013-05-27 12:49:00,70.5,3.3,30.30,ENE,75,2.1,6.2,7,0.00,CLR,,0.00,WeatherDisplay:10.37,2013-05-27 16:49:00,
2013-05-27 12:50:00,70.1,3.1,30.30,East,93,0.0,3.5,7,0.00,CLR,,0.00,WeatherDisplay:10.37,2013-05-27 16:50:00,
2013-05-27 12:51:00,70.3,6.1,30.30,East,93,0.0,3.5,8,0.00,CLR,,0.00,WeatherDisplay:10.37,2013-05-27 16:51:00,
2013-05-27 12:52:00,71.0,6.6,30.30,East,93,0.0,0.0,8,0.00,CLR,,0.00,WeatherDisplay:10.37,2013-05-27 16:52:00,
2013-05-27 12:54:00,70.6,6.3,30.30,East,93,0.0,0.0,8,0.00,CLR,,0.00,WeatherDisplay:10.37,2013-05-27 16:54:00,
2013-05-27 12:55:00,71.6,7.1,30.30,SE,137,0.5,5.5,8,0.00,CLR,,0.00,WeatherDisplay:10.37,2013-05-27 16:55:00,
2013-05-27 12:56:00,71.4,6.9,30.30,East,88,2.0,5.8,8,0.00,CLR,,0.00,WeatherDisplay:10.37,2013-05-27 16:56:00,
2013-05-27 12:57:00,71.8,7.2,30.30,East,88,0.0,2.3,8,0.00,CLR,,0.00,WeatherDisplay:10.37,2013-05-27 16:57:00,
2013-05-27 12:59:00,71.5,4.1,30.30,NE,56,1.3,4.6,7,0.00,CLR,,0.00,WeatherDisplay:10.37,2013-05-27 16:59:00,
2013-05-27 13:01:00,71.6,4.2,30.29,NE,56,0.0,0.0,7,0.00,CLR,,0.00,WeatherDisplay:10.37,2013-05-27 17:01:00,
2013-05-27 13:02:00,72.1,7.5,30.29,NE,56,0.0,0.0,8,0.00,CLR,,0.00,WeatherDisplay:10.37,2013-05-27 17:02:00,
2013-05-27 13:04:00,72.4,1.4,30.29,ESE,104,5.0,6.9,6,0.00,CLR,,0.00,WeatherDisplay:10.37,2013-05-27 17:04:00,
2013-05-27 13:05:00,72.2,1.3,30.29,ENE,78,3.4,6.9,6,0.00,CLR,,0.00,WeatherDisplay:10.37,2013-05-27 17:05:00,
2013-05-27 13:06:00,72.3,1.3,30.29,East,86,1.1,5.8,6,0.00,CLR,,0.00,WeatherDisplay:10.37,2013-05-27 17:06:00,
2013-05-27 13:07:00,72.5,1.5,30.29,East,86,0.0,5.8,6,0.00,CLR,,0.00,WeatherDisplay:10.37,2013-05-27 17:07:00,
2013-05-27 13:08:00,72.9,1.8,30.29,SSE,168,4.0,4.5,6,0.00,CLR,,0.00,WeatherDisplay:10.37,2013-05-27 17:08:00,
2013-05-27 13:09:00,73.0,1.8,30.29,South,178,2.8,6.9,6,0.00,CLR,,0.00,WeatherDisplay:10.37,2013-05-27 17:09:00,
2013-05-27 13:10:00,73.4,2.1,30.29,SE,133,4.1,6.9,6,0.00,CLR,,0.00,WeatherDisplay:10.37,2013-05-27 17:10:00,
2013-05-27 13:11:00,72.9,1.8,30.29,NE,42,1.8,5.8,6,0.00,CLR,,0.00,WeatherDisplay:10.37,2013-05-27 17:11:00,
2013-05-27 13:12:00,72.9,1.8,30.29,NE,42,0.6,5.8,6,0.00,CLR,,0.00,WeatherDisplay:10.37,2013-05-27 17:12:00,
2013-05-27 13:13:00,73.5,2.2,30.29,ESE,110,1.7,6.2,6,0.00,CLR,,0.00,WeatherDisplay:10.37,2013-05-27 17:13:00,
2013-05-27 13:14:00,72.7,1.6,30.29,East,100,5.4,8.1,6,0.00,CLR,,0.00,WeatherDisplay:10.37,2013-05-27 17:14:00,
2013-05-27 13:15:00,72.9,1.8,30.29,East,100,0.0,5.8,6,0.00,CLR,,0.00,WeatherDisplay:10.37,2013-05-27 17:15:00,
2013-05-27 13:17:00,73.5,2.2,30.29,East,100,0.0,0.0,6,0.00,CLR,,0.00,WeatherDisplay:10.37,2013-05-27 17:17:00,
2013-05-27 13:18:00,73.0,1.8,30.29,ENE,64,0.4,0.0,6,0.00,CLR,,0.00,WeatherDisplay:10.37,2013-05-27 17:18:00,
2013-05-27 13:19:00,73.1,1.9,30.29,ENE,64,0.3,3.5,6,0.00,CLR,,0.00,WeatherDisplay:10.37,2013-05-27 17:19:00,
2013-05-27 13:20:00,73.4,2.1,30.29,ENE,64,4.7,6.9,6,0.00,CLR,,0.00,WeatherDisplay:10.37,2013-05-27 17:20:00,
2013-05-27 13:22:00,73.9,2.5,30.29,SE,136,6.4,9.2,6,0.00,CLR,,0.00,WeatherDisplay:10.37,2013-05-27 17:22:00,
2013-05-27 13:24:00,73.7,2.4,30.29,ESE,119,1.9,5.8,6,0.00,CLR,,0.00,WeatherDisplay:10.37,2013-05-27 17:24:00,
2013-05-27 13:25:00,73.7,2.4,30.28,East,95,1.3,6.7,6,0.00,CLR,,0.00,WeatherDisplay:10.37,2013-05-27 17:25:00,
2013-05-27 13:27:00,74.4,2.9,30.28,NNE,21,0.0,4.6,6,0.00,CLR,,0.00,WeatherDisplay:10.37,2013-05-27 17:27:00,
2013-05-27 13:29:00,74.5,2.9,30.28,NNE,21,0.0,0.0,6,0.00,CLR,,0.00,WeatherDisplay:10.37,2013-05-27 17:29:00,
2013-05-27 13:30:00,74.9,3.2,30.28,NNE,21,0.0,0.0,6,0.00,CLR,,0.00,WeatherDisplay:10.37,2013-05-27 17:30:00,
2013-05-27 13:32:00,76.3,4.2,30.28,NNE,21,0.0,0.0,6,0.00,CLR,,0.00,WeatherDisplay:10.37,2013-05-27 17:32:00,
2013-05-27 13:34:00,75.9,0.0,30.28,ESE,109,1.1,3.1,5,0.00,CLR,,0.00,WeatherDisplay:10.37,2013-05-27 17:34:00,
2013-05-27 13:35:00,74.8,-0.8,30.28,East,88,4.0,8.1,5,0.00,CLR,,0.00,WeatherDisplay:10.37,2013-05-27 17:35:00,
2013-05-27 13:37:00,74.0,2.6,30.28,East,97,4.9,8.1,6,0.00,CLR,,0.00,WeatherDisplay:10.37,2013-05-27 17:37:00,
2013-05-27 13:39:00,73.6,2.3,30.28,ESE,113,3.8,6.3,6,0.00,CLR,,0.00,WeatherDisplay:10.37,2013-05-27 17:39:00,
2013-05-27 13:40:00,74.0,2.6,30.28,SE,136,5.3,6.9,6,0.00,CLR,,0.00,WeatherDisplay:10.37,2013-05-27 17:40:00,
2013-05-27 13:41:00,74.4,6.2,30.28,SE,136,0.0,5.8,7,0.00,CLR,,0.00,WeatherDisplay:10.37,2013-05-27 17:41:00,
2013-05-27 13:43:00,73.9,2.5,30.28,East,83,4.1,8.8,6,0.00,CLR,,0.00,WeatherDisplay:10.37,2013-05-27 17:43:00,
2013-05-27 13:44:00,72.8,5.0,30.28,SSE,155,6.5,8.1,7,0.00,CLR,,0.00,WeatherDisplay:10.37,2013-05-27 17:44:00,
2013-05-27 13:45:00,73.5,2.2,30.28,SE,130,1.7,8.1,6,0.00,CLR,,0.00,WeatherDisplay:10.37,2013-05-27 17:45:00,
2013-05-27 13:47:00,74.0,2.6,30.28,South,188,6.7,8.1,6,0.00,CLR,,0.00,WeatherDisplay:10.37,2013-05-27 17:47:00,
2013-05-27 13:48:00,74.0,2.6,30.28,SE,126,6.1,8.1,6,0.00,CLR,,0.00,WeatherDisplay:10.37,2013-05-27 17:48:00,
2013-05-27 13:49:00,74.4,2.9,30.28,ESE,112,0.5,6.9,6,0.00,CLR,,0.00,WeatherDisplay:10.37,2013-05-27 17:49:00,
2013-05-27 13:50:00,74.3,2.8,30.28,SSE,164,3.7,6.9,6,0.00,CLR,,0.00,WeatherDisplay:10.37,2013-05-27 17:50:00,
2013-05-27 13:52:00,74.5,2.9,30.27,SE,138,5.7,9.2,6,0.00,CLR,,0.00,WeatherDisplay:10.37,2013-05-27 17:52:00,
2013-05-27 13:53:00,74.5,2.9,30.28,ESE,114,6.0,8.1,6,0.00,CLR,,0.00,WeatherDisplay:10.37,2013-05-27 17:53:00,
2013-05-27 13:54:00,74.5,2.9,30.28,ESE,121,1.1,6.9,6,0.00,CLR,,0.00,WeatherDisplay:10.37,2013-05-27 17:54:00,
2013-05-27 13:56:00,74.6,3.0,30.28,ESE,121,0.3,5.8,6,0.00,CLR,,0.00,WeatherDisplay:10.37,2013-05-27 17:56:00,
2013-05-27 13:57:00,75.1,-0.6,30.27,ESE,121,0.0,0.0,5,0.00,CLR,,0.00,WeatherDisplay:10.37,2013-05-27 17:57:00,
2013-05-27 13:58:00,75.6,-0.2,30.27,ESE,121,0.0,0.0,5,0.00,CLR,,0.00,WeatherDisplay:10.37,2013-05-27 17:58:00,
2013-05-27 13:59:00,75.3,3.5,30.27,ESE,121,0.0,0.0,6,0.00,CLR,,0.00,WeatherDisplay:10.37,2013-05-27 17:59:00,
2013-05-27 14:01:00,75.9,0.0,30.27,ESE,121,0.0,0.0,5,0.00,CLR,,0.00,WeatherDisplay:10.37,2013-05-27 18:01:00,
2013-05-27 14:03:00,76.1,0.2,30.27,ESE,121,0.0,2.3,5,0.00,CLR,,0.00,WeatherDisplay:10.37,2013-05-27 18:03:00,
2013-05-27 14:04:00,75.4,-0.3,30.27,ESE,121,0.0,0.0,5,0.00,CLR,,0.00,WeatherDisplay:10.37,2013-05-27 18:04:00,
2013-05-27 14:05:00,74.9,3.2,30.27,ENE,68,0.8,6.1,6,0.00,CLR,,0.00,WeatherDisplay:10.37,2013-05-27 18:05:00,
2013-05-27 14:06:00,74.5,2.9,30.27,SE,126,5.7,6.9,6,0.00,CLR,,0.00,WeatherDisplay:10.37,2013-05-27 18:06:00,
2013-05-27 14:08:00,74.6,3.0,30.27,SE,134,8.7,10.4,6,0.00,CLR,,0.00,WeatherDisplay:10.37,2013-05-27 18:08:00,
2013-05-27 14:10:00,74.4,2.9,30.27,East,92,2.6,10.4,6,0.00,CLR,,0.00,WeatherDisplay:10.37,2013-05-27 18:10:00,
2013-05-27 14:11:00,74.2,2.7,30.27,SSE,148,3.4,5.8,6,0.00,CLR,,0.00,WeatherDisplay:10.37,2013-05-27 18:11:00,
2013-05-27 14:13:00,73.6,2.3,30.27,East,83,3.2,4.6,6,0.00,CLR,,0.00,WeatherDisplay:10.37,2013-05-27 18:13:00,
2013-05-27 14:15:00,74.1,2.6,30.27,East,89,1.1,4.6,6,0.00,CLR,,0.00,WeatherDisplay:10.37,2013-05-27 18:15:00,
2013-05-27 14:16:00,73.9,2.5,30.27,ESE,106,3.1,5.8,6,0.00,CLR,,0.00,WeatherDisplay:10.37,2013-05-27 18:16:00,
2013-05-27 14:18:00,74.5,9.3,30.27,ESE,106,0.0,0.0,8,0.00,CLR,,0.00,WeatherDisplay:10.37,2013-05-27 18:18:00,
2013-05-27 14:19:00,74.2,9.0,30.27,ESE,106,0.0,0.0,8,0.00,CLR,,0.00,WeatherDisplay:10.37,2013-05-27 18:19:00,
2013-05-27 14:20:00,74.4,6.2,30.27,ESE,106,0.0,0.0,7,0.00,CLR,,0.00,WeatherDisplay:10.37,2013-05-27 18:20:00,
2013-05-27 14:21:00,74.5,2.9,30.27,ESE,112,4.4,7.6,6,0.00,CLR,,0.00,WeatherDisplay:10.37,2013-05-27 18:21:00,
2013-05-27 14:24:00,73.3,5.4,30.26,ESE,109,6.5,8.1,7,0.00,CLR,,0.00,WeatherDisplay:10.37,2013-05-27 18:24:00,
2013-05-27 14:25:00,73.5,5.6,30.26,East,99,5.0,10.4,7,0.00,CLR,,0.00,WeatherDisplay:10.37,2013-05-27 18:25:00,
2013-05-27 14:26:00,73.5,5.6,30.26,ESE,109,0.0,8.1,7,0.00,CLR,,0.00,WeatherDisplay:10.37,2013-05-27 18:26:00,
2013-05-27 14:29:00,73.8,5.8,30.26,ESE,109,0.0,0.0,7,0.00,CLR,,0.00,WeatherDisplay:10.37,2013-05-27 18:29:00,
2013-05-27 14:31:00,74.5,6.3,30.26,ESE,119,2.2,5.3,7,0.00,CLR,,0.00,WeatherDisplay:10.37,2013-05-27 18:31:00,
2013-05-27 14:34:00,74.5,6.3,30.26,ENE,61,1.8,8.1,7,0.00,CLR,,0.00,WeatherDisplay:10.37,2013-05-27 18:34:00,
2013-05-27 14:36:00,74.5,2.9,30.26,ENE,61,0.0,0.0,6,0.00,CLR,,0.00,WeatherDisplay:10.37,2013-05-27 18:36:00,
2013-05-27 14:39:00,74.8,3.1,30.26,ESE,103,0.0,0.0,6,0.00,CLR,,0.00,WeatherDisplay:10.37,2013-05-27 18:39:00,
2013-05-27 14:40:00,74.6,3.0,30.26,ENE,76,1.7,3.5,6,0.00,CLR,,0.00,WeatherDisplay:10.37,2013-05-27 18:40:00,
2013-05-27 14:41:00,74.7,3.1,30.26,ENE,76,0.0,5.8,6,0.00,CLR,,0.00,WeatherDisplay:10.37,2013-05-27 18:41:00,
2013-05-27 14:42:00,74.8,3.1,30.26,East,100,2.7,6.9,6,0.00,CLR,,0.00,WeatherDisplay:10.37,2013-05-27 18:42:00,
2013-05-27 14:44:00,74.5,2.9,30.25,NE,34,3.1,8.1,6,0.00,CLR,,0.00,WeatherDisplay:10.37,2013-05-27 18:44:00,
2013-05-27 14:45:00,74.5,2.9,30.25,NE,44,2.4,8.1,6,0.00,CLR,,0.00,WeatherDisplay:10.37,2013-05-27 18:45:00,
2013-05-27 14:46:00,73.9,5.9,30.25,NE,55,2.6,8.1,7,0.00,CLR,,0.00,WeatherDisplay:10.37,2013-05-27 18:46:00,
2013-05-27 14:47:00,74.3,6.1,30.25,NE,55,0.4,4.6,7,0.00,CLR,,0.00,WeatherDisplay:10.37,2013-05-27 18:47:00,
2013-05-27 14:50:00,74.4,6.2,30.25,East,93,1.6,4.6,7,0.00,CLR,,0.00,WeatherDisplay:10.37,2013-05-27 18:50:00,
2013-05-27 14:52:00,74.5,6.3,30.25,ESE,104,3.2,6.9,7,0.00,CLR,,0.00,WeatherDisplay:10.37,2013-05-27 18:52:00,
2013-05-27 14:55:00,73.6,2.3,30.25,ESE,106,9.0,13.8,6,0.00,CLR,,0.00,WeatherDisplay:10.37,2013-05-27 18:55:00,
2013-05-27 14:56:00,73.1,8.2,30.25,East,85,6.6,11.5,8,0.00,CLR,,0.00,WeatherDisplay:10.37,2013-05-27 18:56:00,
2013-05-27 14:57:00,73.3,11.0,30.25,ESE,109,5.4,8.1,9,0.00,CLR,,0.00,WeatherDisplay:10.37,2013-05-27 18:57:00,
2013-05-27 15:00:00,73.5,11.1,30.25,East,95,4.4,10.4,9,0.00,CLR,,0.00,WeatherDisplay:10.37,2013-05-27 19:00:00,
2013-05-27 15:01:00,74.1,9.0,30.25,East,96,3.2,6.9,8,0.00,CLR,,0.00,WeatherDisplay:10.37,2013-05-27 19:01:00,
2013-05-27 15:02:00,74.0,5.9,30.25,ESE,123,4.7,6.9,7,0.00,CLR,,0.00,WeatherDisplay:10.37,2013-05-27 19:02:00,
2013-05-27 15:03:00,74.5,6.3,30.25,SSE,161,2.1,6.9,7,0.00,CLR,,0.00,WeatherDisplay:10.37,2013-05-27 19:03:00,
2013-05-27 15:05:00,74.6,6.4,30.25,South,174,0.9,3.5,7,0.00,CLR,,0.00,WeatherDisplay:10.37,2013-05-27 19:05:00,
2013-05-27 15:06:00,74.7,3.1,30.25,ESE,110,1.5,3.5,6,0.00,CLR,,0.00,WeatherDisplay:10.37,2013-05-27 19:06:00,
2013-05-27 15:07:00,74.5,2.9,30.25,East,96,4.6,9.2,6,0.00,CLR,,0.00,WeatherDisplay:10.37,2013-05-27 19:07:00,
2013-05-27 15:08:00,74.5,2.9,30.25,ESE,103,5.5,9.2,6,0.00,CLR,,0.00,WeatherDisplay:10.37,2013-05-27 19:08:00,
2013-05-27 15:10:00,74.2,6.1,30.25,ESE,109,4.1,6.9,7,0.00,CLR,,0.00,WeatherDisplay:10.37,2013-05-27 19:10:00,
2013-05-27 15:11:00,74.4,6.2,30.25,East,95,3.2,6.9,7,0.00,CLR,,0.00,WeatherDisplay:10.37,2013-05-27 19:11:00,
2013-05-27 15:12:00,74.5,6.3,30.25,East,95,1.2,4.6,7,0.00,CLR,,0.00,WeatherDisplay:10.37,2013-05-27 19:12:00,
2013-05-27 15:13:00,74.5,6.3,30.24,ESE,120,6.5,9.2,7,0.00,CLR,,0.00,WeatherDisplay:10.37,2013-05-27 19:13:00,
2013-05-27 15:15:00,74.8,9.5,30.24,ENE,59,1.4,5.8,8,0.00,CLR,,0.00,WeatherDisplay:10.37,2013-05-27 19:15:00,
2013-05-27 15:16:00,75.6,7.1,30.24,South,176,2.3,5.8,7,0.00,CLR,,0.00,WeatherDisplay:10.37,2013-05-27 19:16:00,
2013-05-27 15:17:00,75.3,6.9,30.24,East,89,6.0,8.1,7,0.00,CLR,,0.00,WeatherDisplay:10.37,2013-05-27 19:17:00,
2013-05-27 15:18:00,74.5,2.9,30.24,ENE,76,4.4,8.1,6,0.00,CLR,,0.00,WeatherDisplay:10.37,2013-05-27 19:18:00,
2013-05-27 15:20:00,75.2,6.8,30.24,SSE,151,2.9,8.1,7,0.00,CLR,,0.00,WeatherDisplay:10.37,2013-05-27 19:20:00,
2013-05-27 15:22:00,75.7,3.8,30.24,SSE,151,0.0,0.0,6,0.00,CLR,,0.00,WeatherDisplay:10.37,2013-05-27 19:22:00,
2013-05-27 15:23:00,75.3,3.5,30.24,ESE,114,6.0,8.1,6,0.00,CLR,,0.00,WeatherDisplay:10.37,2013-05-27 19:23:00,
2013-05-27 15:26:00,74.6,6.4,30.24,ENE,65,0.3,3.2,7,0.00,CLR,,0.00,WeatherDisplay:10.37,2013-05-27 19:26:00,
2013-05-27 15:27:00,74.6,6.4,30.24,ENE,65,0.2,3.5,7,0.00,CLR,,0.00,WeatherDisplay:10.37,2013-05-27 19:27:00,
2013-05-27 15:28:00,75.4,7.0,30.24,East,95,3.9,5.4,7,0.00,CLR,,0.00,WeatherDisplay:10.37,2013-05-27 19:28:00,
2013-05-27 15:31:00,74.6,6.4,30.24,SSE,154,1.2,4.6,7,0.00,CLR,,0.00,WeatherDisplay:10.37,2013-05-27 19:31:00,
2013-05-27 15:32:00,74.7,6.4,30.24,SSE,154,0.6,4.6,7,0.00,CLR,,0.00,WeatherDisplay:10.37,2013-05-27 19:32:00,
2013-05-27 15:33:00,75.8,7.3,30.24,ESE,110,4.9,8.1,7,0.00,CLR,,0.00,WeatherDisplay:10.37,2013-05-27 19:33:00,
2013-05-27 15:34:00,75.7,7.2,30.24,ESE,121,7.0,8.6,7,0.00,CLR,,0.00,WeatherDisplay:10.37,2013-05-27 19:34:00,
2013-05-27 15:37:00,75.0,3.3,30.24,East,95,4.2,8.1,6,0.00,CLR,,0.00,WeatherDisplay:10.37,2013-05-27 19:37:00,
2013-05-27 15:39:00,75.9,3.9,30.24,East,95,0.0,0.0,6,0.00,CLR,,0.00,WeatherDisplay:10.37,2013-05-27 19:39:00,
2013-05-27 15:42:00,76.6,4.5,30.24,ESE,114,4.5,9.2,6,0.00,CLR,,0.00,WeatherDisplay:10.37,2013-05-27 19:42:00,
2013-05-27 15:44:00,76.4,4.3,30.24,East,100,5.4,10.6,6,0.00,CLR,,0.00,WeatherDisplay:10.37,2013-05-27 19:44:00,
2013-05-27 15:47:00,74.6,9.3,30.23,East,80,6.2,9.2,8,0.00,CLR,,0.00,WeatherDisplay:10.37,2013-05-27 19:47:00,
2013-05-27 15:49:00,74.5,9.3,30.23,ENE,68,0.0,4.6,8,0.00,CLR,,0.00,WeatherDisplay:10.37,2013-05-27 19:49:00,
2013-05-27 15:52:00,75.3,6.9,30.23,East,99,6.3,9.2,7,0.00,CLR,,0.00,WeatherDisplay:10.37,2013-05-27 19:52:00,
2013-05-27 15:53:00,74.9,9.6,30.23,SE,143,6.0,8.1,8,0.00,CLR,,0.00,WeatherDisplay:10.37,2013-05-27 19:53:00,
2013-05-27 15:54:00,75.8,7.3,30.23,SSE,147,2.4,8.1,7,0.00,CLR,,0.00,WeatherDisplay:10.37,2013-05-27 19:54:00,
2013-05-27 15:55:00,75.8,7.3,30.23,SSE,147,0.2,6.9,7,0.00,CLR,,0.00,WeatherDisplay:10.37,2013-05-27 19:55:00,
2013-05-27 15:57:00,76.0,7.4,30.23,ESE,103,5.5,9.2,7,0.00,CLR,,0.00,WeatherDisplay:10.37,2013-05-27 19:57:00,
2013-05-27 15:58:00,75.7,7.2,30.23,ESE,109,7.5,10.4,7,0.00,CLR,,0.00,WeatherDisplay:10.37,2013-05-27 19:58:00,
2013-05-27 15:59:00,75.2,6.8,30.23,SE,126,5.7,10.4,7,0.00,CLR,,0.00,WeatherDisplay:10.37,2013-05-27 19:59:00,
2013-05-27 16:00:00,75.3,9.9,30.23,SSE,152,5.8,8.1,8,0.00,CLR,,0.00,WeatherDisplay:10.37,2013-05-27 20:00:00,
2013-05-27 16:02:00,76.2,7.5,30.22,ESE,120,2.3,6.9,7,0.00,CLR,,0.00,WeatherDisplay:10.37,2013-05-27 20:02:00,
2013-05-27 16:03:00,76.1,7.5,30.22,ESE,117,2.2,6.9,7,0.00,CLR,,0.00,WeatherDisplay:10.37,2013-05-27 20:03:00,
2013-05-27 16:04:00,76.6,4.5,30.22,SE,134,1.0,3.5,6,0.00,CLR,,0.00,WeatherDisplay:10.37,2013-05-27 20:04:00,
2013-05-27 16:06:00,77.0,4.7,30.22,SE,134,0.0,0.0,6,0.00,CLR,,0.00,WeatherDisplay:10.37,2013-05-27 20:06:00,
2013-05-27 16:08:00,76.9,4.7,30.22,SE,134,0.0,0.0,6,0.00,CLR,,0.00,WeatherDisplay:10.37,2013-05-27 20:08:00,
2013-05-27 16:10:00,76.7,4.5,30.22,ESE,103,7.2,9.2,6,0.00,CLR,,0.00,WeatherDisplay:10.37,2013-05-27 20:10:00,
2013-05-27 16:12:00,76.4,4.3,30.22,East,88,3.1,8.1,6,0.00,CLR,,0.00,WeatherDisplay:10.37,2013-05-27 20:12:00,
2013-05-27 16:13:00,76.2,7.5,30.22,East,88,3.2,6.9,7,0.00,CLR,,0.00,WeatherDisplay:10.37,2013-05-27 20:13:00,
2013-05-27 16:15:00,76.5,7.8,30.22,NE,48,0.0,3.5,7,0.00,CLR,,0.00,WeatherDisplay:10.37,2013-05-27 20:15:00,
2013-05-27 16:17:00,76.0,13.0,30.22,NNE,27,1.3,8.4,9,0.00,CLR,,0.00,WeatherDisplay:10.37,2013-05-27 20:17:00,
2013-05-27 16:18:00,75.7,12.8,30.22,ESE,116,4.1,8.1,9,0.00,CLR,,0.00,WeatherDisplay:10.37,2013-05-27 20:18:00,
2013-05-27 16:19:00,75.4,12.6,30.22,ENE,71,2.1,5.8,9,0.00,CLR,,0.00,WeatherDisplay:10.37,2013-05-27 20:19:00,
2013-05-27 16:20:00,75.7,10.2,30.22,NE,54,2.7,4.6,8,0.00,CLR,,0.00,WeatherDisplay:10.37,2013-05-27 20:20:00,
2013-05-27 16:22:00,74.6,16.6,30.22,ENE,75,1.5,5.8,11,0.00,CLR,,0.00,WeatherDisplay:10.37,2013-05-27 20:22:00,
2013-05-27 16:23:00,74.8,16.7,30.22,ENE,75,0.2,4.6,11,0.00,CLR,,0.00,WeatherDisplay:10.37,2013-05-27 20:23:00,
2013-05-27 16:24:00,75.7,15.2,30.22,ENE,75,0.0,0.0,10,0.00,CLR,,0.00,WeatherDisplay:10.37,2013-05-27 20:24:00,
2013-05-27 16:25:00,76.0,15.4,30.22,ENE,75,0.0,0.0,10,0.00,CLR,,0.00,WeatherDisplay:10.37,2013-05-27 20:25:00,
2013-05-27 16:27:00,76.1,13.1,30.22,NE,56,0.8,4.6,9,0.00,CLR,,0.00,WeatherDisplay:10.37,2013-05-27 20:27:00,
2013-05-27 16:28:00,75.4,15.0,30.22,NE,56,0.3,4.6,10,0.00,CLR,,0.00,WeatherDisplay:10.37,2013-05-27 20:28:00,
2013-05-27 16:29:00,76.2,15.6,30.22,SE,138,1.7,6.0,10,0.00,CLR,,0.00,WeatherDisplay:10.37,2013-05-27 20:29:00,
2013-05-27 16:30:00,76.3,13.3,30.22,SE,127,3.7,6.9,9,0.00,CLR,,0.00,WeatherDisplay:10.37,2013-05-27 20:30:00,
2013-05-27 16:32:00,76.3,7.6,30.22,ESE,120,4.6,6.9,7,0.00,CLR,,0.00,WeatherDisplay:10.37,2013-05-27 20:32:00,
2013-05-27 16:33:00,76.4,7.7,30.22,SE,141,4.7,6.9,7,0.00,CLR,,0.00,WeatherDisplay:10.37,2013-05-27 20:33:00,
2013-05-27 16:34:00,76.4,7.7,30.22,ESE,123,0.8,6.9,7,0.00,CLR,,0.00,WeatherDisplay:10.37,2013-05-27 20:34:00,
2013-05-27 16:35:00,76.8,11.0,30.22,ESE,109,1.0,5.8,8,0.00,CLR,,0.00,WeatherDisplay:10.37,2013-05-27 20:35:00,
2013-05-27 16:37:00,76.4,7.7,30.21,NNE,31,4.4,7.9,7,0.00,CLR,,0.00,WeatherDisplay:10.37,2013-05-27 20:37:00,
2013-05-27 16:38:00,76.4,15.7,30.21,NE,55,2.5,8.1,10,0.00,CLR,,0.00,WeatherDisplay:10.37,2013-05-27 20:38:00,
2013-05-27 16:39:00,76.2,7.5,30.21,ENE,61,3.3,7.8,7,0.00,CLR,,0.00,WeatherDisplay:10.37,2013-05-27 20:39:00,
2013-05-27 16:40:00,76.2,10.5,30.21,NE,49,4.7,6.9,8,0.00,CLR,,0.00,WeatherDisplay:10.37,2013-05-27 20:40:00,
2013-05-27 16:41:00,75.6,17.3,30.21,NE,54,2.0,6.9,11,0.00,CLR,,0.00,WeatherDisplay:10.37,2013-05-27 20:41:00,
2013-05-27 16:43:00,76.1,13.1,30.21,SE,126,7.6,10.4,9,0.00,CLR,,0.00,WeatherDisplay:10.37,2013-05-27 20:43:00,
2013-05-27 16:45:00,75.4,15.0,30.21,ESE,114,1.1,6.9,10,0.00,CLR,,0.00,WeatherDisplay:10.37,2013-05-27 20:45:00,
2013-05-27 16:46:00,76.0,15.4,30.21,ESE,106,2.8,5.8,10,0.00,CLR,,0.00,WeatherDisplay:10.37,2013-05-27 20:46:00,
2013-05-27 16:48:00,76.0,13.0,30.21,East,100,6.9,9.2,9,0.00,CLR,,0.00,WeatherDisplay:10.37,2013-05-27 20:48:00,
2013-05-27 16:49:00,74.8,14.5,30.21,NE,47,7.3,12.7,10,0.00,CLR,,0.00,WeatherDisplay:10.37,2013-05-27 20:49:00,
2013-05-27 16:50:00,75.2,14.8,30.21,ENE,62,0.2,5.8,10,0.00,CLR,,0.00,WeatherDisplay:10.37,2013-05-27 20:50:00,
2013-05-27 16:51:00,75.0,14.7,30.21,East,89,3.3,7.3,10,0.00,CLR,,0.00,WeatherDisplay:10.37,2013-05-27 20:51:00,
2013-05-27 16:53:00,75.2,19.1,30.21,East,79,3.5,10.4,12,0.00,CLR,,0.00,WeatherDisplay:10.37,2013-05-27 20:53:00,
2013-05-27 16:54:00,75.2,19.1,30.21,East,79,3.5,10.4,12,0.00,CLR,,0.00,WeatherDisplay:10.37,2013-05-27 20:54:00,
2013-05-27 16:55:00,74.9,18.8,30.21,NNE,31,3.1,6.9,12,0.00,CLR,,0.00,WeatherDisplay:10.37,2013-05-27 20:55:00,
2013-05-27 16:56:00,74.8,16.7,30.21,ENE,61,2.7,6.9,11,0.00,CLR,,0.00,WeatherDisplay:10.37,2013-05-27 20:56:00,
2013-05-27 16:59:00,75.3,17.1,30.21,ESE,103,3.5,8.1,11,0.00,CLR,,0.00,WeatherDisplay:10.37,2013-05-27 20:59:00,
2013-05-27 17:00:00,75.0,14.7,30.21,NE,56,3.5,5.8,10,0.00,CLR,,0.00,WeatherDisplay:10.37,2013-05-27 21:00:00,
2013-05-27 17:01:00,75.2,17.0,30.21,NE,56,0.8,5.8,11,0.00,CLR,,0.00,WeatherDisplay:10.37,2013-05-27 21:01:00,
2013-05-27 17:04:00,75.8,15.3,30.21,ESE,104,4.6,11.5,10,0.00,CLR,,0.00,WeatherDisplay:10.37,2013-05-27 21:04:00,
2013-05-27 17:05:00,76.0,15.4,30.21,ENE,76,2.0,4.6,10,0.00,CLR,,0.00,WeatherDisplay:10.37,2013-05-27 21:05:00,
2013-05-27 17:06:00,75.9,17.6,30.21,NE,35,1.8,6.9,11,0.00,CLR,,0.00,WeatherDisplay:10.37,2013-05-27 21:06:00,
2013-05-27 17:07:00,76.3,19.9,30.21,NE,35,2.6,6.9,12,0.00,CLR,,0.00,WeatherDisplay:10.37,2013-05-27 21:07:00,
2013-05-27 17:09:00,76.5,15.8,30.21,NNE,25,1.4,6.9,10,0.00,CLR,,0.00,WeatherDisplay:10.37,2013-05-27 21:09:00,
2013-05-27 17:11:00,75.3,14.9,30.21,East,88,2.0,6.9,10,0.00,CLR,,0.00,WeatherDisplay:10.37,2013-05-27 21:11:00,
2013-05-27 17:12:00,75.8,17.5,30.21,ENE,69,1.3,5.9,11,0.00,CLR,,0.00,WeatherDisplay:10.37,2013-05-27 21:12:00,
2013-05-27 17:14:00,75.5,19.3,30.21,East,83,4.5,6.9,12,0.00,CLR,,0.00,WeatherDisplay:10.37,2013-05-27 21:14:00,
2013-05-27 17:16:00,75.4,21.1,30.21,NNE,18,2.7,8.1,13,0.00,CLR,,0.00,WeatherDisplay:10.37,2013-05-27 21:16:00,
2013-05-27 17:17:00,75.3,21.0,30.21,ENE,64,3.2,5.8,13,0.00,CLR,,0.00,WeatherDisplay:10.37,2013-05-27 21:17:00,
2013-05-27 17:19:00,75.3,21.0,30.21,East,96,5.5,10.4,13,0.00,CLR,,0.00,WeatherDisplay:10.37,2013-05-27 21:19:00,
2013-05-27 17:21:00,75.9,19.6,30.21,SE,133,0.2,2.9,12,0.00,CLR,,0.00,WeatherDisplay:10.37,2013-05-27 21:21:00,
2013-05-27 17:22:00,75.9,15.4,30.21,ENE,73,2.9,4.6,10,0.00,CLR,,0.00,WeatherDisplay:10.37,2013-05-27 21:22:00,
2013-05-27 17:24:00,74.9,18.8,30.20,NE,48,5.6,8.1,12,0.00,CLR,,0.00,WeatherDisplay:10.37,2013-05-27 21:24:00,
2013-05-27 17:27:00,74.7,20.5,30.21,NE,52,1.5,8.1,13,0.00,CLR,,0.00,WeatherDisplay:10.37,2013-05-27 21:27:00,
2013-05-27 17:29:00,75.8,21.4,30.20,SE,138,5.3,6.9,13,0.00,CLR,,0.00,WeatherDisplay:10.37,2013-05-27 21:29:00,
2013-05-27 17:32:00,74.6,20.5,30.20,ENE,76,0.9,12.7,13,0.00,CLR,,0.00,WeatherDisplay:10.37,2013-05-27 21:32:00,
2013-05-27 17:33:00,74.6,18.6,30.20,East,95,1.0,3.5,12,0.00,CLR,,0.00,WeatherDisplay:10.37,2013-05-27 21:33:00,
2013-05-27 17:34:00,74.6,22.2,30.20,East,95,5.1,9.2,14,0.00,CLR,,0.00,WeatherDisplay:10.37,2013-05-27 21:34:00,
2013-05-27 17:37:00,74.5,22.1,30.20,East,99,0.0,5.8,14,0.00,CLR,,0.00,WeatherDisplay:10.37,2013-05-27 21:37:00,
2013-05-27 17:38:00,74.5,22.1,30.20,North,8,1.7,4.6,14,0.00,CLR,,0.00,WeatherDisplay:10.37,2013-05-27 21:38:00,
2013-05-27 17:39:00,74.6,22.2,30.21,NE,56,3.1,8.1,14,0.00,CLR,,0.00,WeatherDisplay:10.37,2013-05-27 21:39:00,
2013-05-27 17:40:00,74.6,20.5,30.21,NNE,28,4.5,8.1,13,0.00,CLR,,0.00,WeatherDisplay:10.37,2013-05-27 21:40:00,
2013-05-27 17:43:00,74.5,22.1,30.21,ENE,62,5.0,8.1,14,0.00,CLR,,0.00,WeatherDisplay:10.37,2013-05-27 21:43:00,
2013-05-27 17:44:00,74.6,23.9,30.21,SE,137,4.5,5.8,15,0.00,CLR,,0.00,WeatherDisplay:10.37,2013-05-27 21:44:00,
2013-05-27 17:45:00,74.6,23.9,30.21,East,96,5.1,5.8,15,0.00,CLR,,0.00,WeatherDisplay:10.37,2013-05-27 21:45:00,
2013-05-27 17:48:00,74.8,22.4,30.21,East,88,3.2,8.1,14,0.00,CLR,,0.00,WeatherDisplay:10.37,2013-05-27 21:48:00,
2013-05-27 17:49:00,74.8,22.4,30.21,East,88,0.0,4.6,14,0.00,CLR,,0.00,WeatherDisplay:10.37,2013-05-27 21:49:00,
2013-05-27 17:50:00,75.3,22.8,30.21,East,88,0.0,0.0,14,0.00,CLR,,0.00,WeatherDisplay:10.37,2013-05-27 21:50:00,
2013-05-27 17:53:00,76.1,19.8,30.21,East,99,7.9,11.5,12,0.00,CLR,,0.00,WeatherDisplay:10.37,2013-05-27 21:53:00,
2013-05-27 17:54:00,75.9,19.6,30.21,SSE,152,5.6,11.5,12,0.00,CLR,,0.00,WeatherDisplay:10.37,2013-05-27 21:54:00,
2013-05-27 17:55:00,75.9,21.5,30.21,SSE,152,0.0,5.8,13,0.00,CLR,,0.00,WeatherDisplay:10.37,2013-05-27 21:55:00,
2013-05-27 17:56:00,75.9,19.6,30.21,ENE,66,4.2,8.1,12,0.00,CLR,,0.00,WeatherDisplay:10.37,2013-05-27 21:56:00,
2013-05-27 17:59:00,76.2,21.7,30.21,NE,48,0.7,2.3,13,0.00,CLR,,0.00,WeatherDisplay:10.37,2013-05-27 21:59:00,
2013-05-27 18:00:00,76.2,23.5,30.21,ENE,71,1.2,5.2,14,0.00,CLR,,0.00,WeatherDisplay:10.37,2013-05-27 22:00:00,
2013-05-27 18:01:00,76.0,21.6,30.21,NNE,17,2.7,5.8,13,0.00,CLR,,0.00,WeatherDisplay:10.37,2013-05-27 22:01:00,
2013-05-27 18:04:00,76.0,21.6,30.21,East,95,1.1,4.6,13,0.00,CLR,,0.00,WeatherDisplay:10.37,2013-05-27 22:04:00,
2013-05-27 18:05:00,76.0,23.3,30.21,ESE,116,3.2,5.9,14,0.00,CLR,,0.00,WeatherDisplay:10.37,2013-05-27 22:05:00,
2013-05-27 18:06:00,75.7,23.1,30.21,ENE,64,0.0,2.3,14,0.00,CLR,,0.00,WeatherDisplay:10.37,2013-05-27 22:06:00,
2013-05-27 18:09:00,75.3,21.0,30.21,ENE,65,5.9,9.2,13,0.00,CLR,,0.00,WeatherDisplay:10.37,2013-05-27 22:09:00,
2013-05-27 18:10:00,75.4,22.8,30.21,ENE,65,1.9,9.2,14,0.00,CLR,,0.00,WeatherDisplay:10.37,2013-05-27 22:10:00,
2013-05-27 18:11:00,75.0,20.8,30.21,NE,56,4.1,8.1,13,0.00,CLR,,0.00,WeatherDisplay:10.37,2013-05-27 22:11:00,
2013-05-27 18:12:00,74.9,24.1,30.21,East,99,5.8,9.2,15,0.00,CLR,,0.00,WeatherDisplay:10.37,2013-05-27 22:12:00,
2013-05-27 18:14:00,74.6,25.4,30.21,East,93,3.1,10.4,16,0.00,CLR,,0.00,WeatherDisplay:10.37,2013-05-27 22:14:00,
2013-05-27 18:15:00,74.5,23.8,30.21,East,97,2.3,10.4,15,0.00,CLR,,0.00,WeatherDisplay:10.37,2013-05-27 22:15:00,
2013-05-27 18:16:00,74.7,25.5,30.20,NNE,32,1.0,4.6,16,0.00,CLR,,0.00,WeatherDisplay:10.37,2013-05-27 22:16:00,
2013-05-27 18:17:00,74.6,25.4,30.20,NNE,32,0.0,4.6,16,0.00,CLR,,0.00,WeatherDisplay:10.37,2013-05-27 22:17:00,
2013-05-27 18:20:00,75.4,24.5,30.20,ESE,120,4.4,9.2,15,0.00,CLR,,0.00,WeatherDisplay:10.37,2013-05-27 22:20:00,
2013-05-27 18:21:00,75.3,21.0,30.20,ENE,61,2.7,8.1,13,0.00,CLR,,0.00,WeatherDisplay:10.37,2013-05-27 22:21:00,
2013-05-27 18:22:00,75.1,22.6,30.20,SE,141,4.9,8.1,14,0.00,CLR,,0.00,WeatherDisplay:10.37,2013-05-27 22:22:00,
2013-05-27 18:25:00,75.6,23.0,30.20,East,95,2.0,4.6,14,0.00,CLR,,0.00,WeatherDisplay:10.37,2013-05-27 22:25:00,
2013-05-27 18:26:00,74.7,25.5,30.19,East,99,6.6,9.2,16,0.00,CLR,,0.00,WeatherDisplay:10.37,2013-05-27 22:26:00,
2013-05-27 18:27:00,74.5,23.8,30.19,ESE,102,7.6,9.2,15,0.00,CLR,,0.00,WeatherDisplay:10.37,2013-05-27 22:27:00,
2013-05-27 18:30:00,74.6,26.9,30.19,ESE,113,4.2,9.2,17,0.00,CLR,,0.00,WeatherDisplay:10.37,2013-05-27 22:30:00,
2013-05-27 18:31:00,74.6,25.4,30.19,East,100,4.7,7.1,16,0.00,CLR,,0.00,WeatherDisplay:10.37,2013-05-27 22:31:00,
2013-05-27 18:32:00,74.6,26.9,30.19,ESE,114,4.4,9.2,17,0.00,CLR,,0.00,WeatherDisplay:10.37,2013-05-27 22:32:00,
2013-05-27 18:35:00,74.6,26.9,30.19,ENE,71,5.7,6.9,17,0.00,CLR,,0.00,WeatherDisplay:10.37,2013-05-27 22:35:00,
2013-05-27 18:36:00,74.6,26.9,30.19,ESE,109,2.2,6.9,17,0.00,CLR,,0.00,WeatherDisplay:10.37,2013-05-27 22:36:00,
2013-05-27 18:37:00,74.6,25.4,30.19,ENE,66,2.6,5.4,16,0.00,CLR,,0.00,WeatherDisplay:10.37,2013-05-27 22:37:00,
2013-05-27 18:38:00,74.6,26.9,30.19,ENE,58,3.2,8.1,17,0.00,CLR,,0.00,WeatherDisplay:10.37,2013-05-27 22:38:00,
2013-05-27 18:40:00,74.6,25.4,30.19,ENE,78,4.4,8.1,16,0.00,CLR,,0.00,WeatherDisplay:10.37,2013-05-27 22:40:00,
2013-05-27 18:41:00,74.6,26.9,30.19,SSE,148,3.8,8.1,17,0.00,CLR,,0.00,WeatherDisplay:10.37,2013-05-27 22:41:00,
2013-05-27 18:42:00,74.6,25.4,30.19,ESE,106,7.8,12.7,16,0.00,CLR,,0.00,WeatherDisplay:10.37,2013-05-27 22:42:00,
2013-05-27 18:43:00,74.6,25.4,30.19,ESE,110,7.6,12.7,16,0.00,CLR,,0.00,WeatherDisplay:10.37,2013-05-27 22:43:00,
2013-05-27 18:46:00,74.6,28.3,30.19,NE,56,4.6,9.2,18,0.00,CLR,,0.00,WeatherDisplay:10.37,2013-05-27 22:46:00,
2013-05-27 18:47:00,74.5,26.8,30.19,ESE,123,5.1,6.9,17,0.00,CLR,,0.00,WeatherDisplay:10.37,2013-05-27 22:47:00,
2013-05-27 18:48:00,74.6,26.9,30.19,East,90,2.0,9.2,17,0.00,CLR,,0.00,WeatherDisplay:10.37,2013-05-27 22:48:00,
2013-05-27 18:51:00,74.6,25.4,30.19,NE,51,2.5,5.8,16,0.00,CLR,,0.00,WeatherDisplay:10.37,2013-05-27 22:51:00,
2013-05-27 18:52:00,74.4,26.7,30.20,NE,51,0.0,8.1,17,0.00,CLR,,0.00,WeatherDisplay:10.37,2013-05-27 22:52:00,
2013-05-27 18:53:00,74.6,26.9,30.20,NE,51,0.0,0.0,17,0.00,CLR,,0.00,WeatherDisplay:10.37,2013-05-27 22:53:00,
2013-05-27 18:54:00,74.5,26.8,30.20,NE,51,0.5,2.3,17,0.00,CLR,,0.00,WeatherDisplay:10.37,2013-05-27 22:54:00,
2013-05-27 18:56:00,74.6,26.9,30.19,NE,48,2.3,6.9,17,0.00,CLR,,0.00,WeatherDisplay:10.37,2013-05-27 22:56:00,
2013-05-27 18:57:00,74.3,26.6,30.19,NE,48,0.0,0.0,17,0.00,CLR,,0.00,WeatherDisplay:10.37,2013-05-27 22:57:00,
2013-05-27 18:58:00,74.5,26.8,30.19,NE,48,0.0,0.0,17,0.00,CLR,,0.00,WeatherDisplay:10.37,2013-05-27 22:58:00,
2013-05-27 18:59:00,74.5,26.8,30.19,NE,48,0.0,0.0,17,0.00,CLR,,0.00,WeatherDisplay:10.37,2013-05-27 22:59:00,
2013-05-27 19:01:00,74.5,26.8,30.19,NE,40,1.2,5.8,17,0.00,CLR,,0.00,WeatherDisplay:10.37,2013-05-27 23:01:00,
2013-05-27 19:02:00,74.6,26.9,30.19,NE,44,1.3,5.8,17,0.00,CLR,,0.00,WeatherDisplay:10.37,2013-05-27 23:02:00,
2013-05-27 19:03:00,74.5,26.8,30.19,SE,143,0.8,8.3,17,0.00,CLR,,0.00,WeatherDisplay:10.37,2013-05-27 23:03:00,
2013-05-27 19:04:00,74.5,26.8,30.19,NE,51,3.2,9.2,17,0.00,CLR,,0.00,WeatherDisplay:10.37,2013-05-27 23:04:00,
2013-05-27 19:07:00,74.6,26.9,30.19,East,92,2.6,7.5,17,0.00,CLR,,0.00,WeatherDisplay:10.37,2013-05-27 23:07:00,
2013-05-27 19:08:00,74.5,26.8,30.19,ENE,71,5.7,8.1,17,0.00,CLR,,0.00,WeatherDisplay:10.37,2013-05-27 23:08:00,
2013-05-27 19:09:00,73.9,27.7,30.19,ESE,114,7.0,8.1,18,0.00,CLR,,0.00,WeatherDisplay:10.37,2013-05-27 23:09:00,
2013-05-27 19:12:00,73.4,27.3,30.19,East,99,7.2,11.5,18,0.00,CLR,,0.00,WeatherDisplay:10.37,2013-05-27 23:12:00,
2013-05-27 19:13:00,73.5,28.7,30.19,East,83,7.0,11.5,19,0.00,CLR,,0.00,WeatherDisplay:10.37,2013-05-27 23:13:00,
2013-05-27 19:14:00,73.0,29.5,30.19,East,88,6.5,10.4,20,0.00,CLR,,0.00,WeatherDisplay:10.37,2013-05-27 23:14:00,
2013-05-27 19:17:00,72.9,29.4,30.19,ENE,59,5.5,8.1,20,0.00,CLR,,0.00,WeatherDisplay:10.37,2013-05-27 23:17:00,
2013-05-27 19:18:00,73.3,29.8,30.19,NNE,18,3.4,8.1,20,0.00,CLR,,0.00,WeatherDisplay:10.37,2013-05-27 23:18:00,
2013-05-27 19:19:00,73.3,28.5,30.19,East,100,3.9,10.4,19,0.00,CLR,,0.00,WeatherDisplay:10.37,2013-05-27 23:19:00,
2013-05-27 19:22:00,73.4,28.6,30.19,East,88,0.0,0.0,19,0.00,CLR,,0.00,WeatherDisplay:10.37,2013-05-27 23:22:00,
2013-05-27 19:23:00,73.7,28.8,30.19,East,88,0.0,0.0,19,0.00,CLR,,0.00,WeatherDisplay:10.37,2013-05-27 23:23:00,
2013-05-27 19:24:00,73.3,28.5,30.19,ESE,107,4.3,11.0,19,0.00,CLR,,0.00,WeatherDisplay:10.37,2013-05-27 23:24:00,
2013-05-27 19:25:00,73.0,28.3,30.19,ESE,114,7.6,12.7,19,0.00,CLR,,0.00,WeatherDisplay:10.37,2013-05-27 23:25:00,
2013-05-27 19:28:00,73.1,29.6,30.18,East,82,4.3,7.5,20,0.00,CLR,,0.00,WeatherDisplay:10.37,2013-05-27 23:28:00,
2013-05-27 19:29:00,72.7,29.3,30.18,East,86,6.7,9.2,20,0.00,CLR,,0.00,WeatherDisplay:10.37,2013-05-27 23:29:00,
2013-05-27 19:30:00,72.8,29.4,30.18,East,85,6.3,9.6,20,0.00,CLR,,0.00,WeatherDisplay:10.37,2013-05-27 23:30:00,
2013-05-27 19:33:00,72.4,29.0,30.18,ENE,78,4.9,9.2,20,0.00,CLR,,0.00,WeatherDisplay:10.37,2013-05-27 23:33:00,
2013-05-27 19:34:00,72.7,29.3,30.18,NE,52,3.9,6.9,20,0.00,CLR,,0.00,WeatherDisplay:10.37,2013-05-27 23:34:00,
2013-05-27 19:35:00,71.8,28.5,30.18,NE,51,5.4,10.4,20,0.00,CLR,,0.00,WeatherDisplay:10.37,2013-05-27 23:35:00,
2013-05-27 19:38:00,72.3,30.1,30.19,East,93,1.3,10.4,21,0.00,CLR,,0.00,WeatherDisplay:10.37,2013-05-27 23:38:00,
2013-05-27 19:39:00,72.1,30.0,30.19,ESE,114,1.0,3.5,21,0.00,CLR,,0.00,WeatherDisplay:10.37,2013-05-27 23:39:00,
2013-05-27 19:40:00,71.8,29.7,30.19,East,86,2.5,6.9,21,0.00,CLR,,0.00,WeatherDisplay:10.37,2013-05-27 23:40:00,
2013-05-27 19:43:00,71.2,30.4,30.19,ENE,62,5.2,6.9,22,0.00,CLR,,0.00,WeatherDisplay:10.37,2013-05-27 23:43:00,
2013-05-27 19:44:00,71.5,30.6,30.19,SSE,150,4.6,6.9,22,0.00,CLR,,0.00,WeatherDisplay:10.37,2013-05-27 23:44:00,
2013-05-27 19:45:00,71.8,30.9,30.19,ENE,78,2.8,6.9,22,0.00,CLR,,0.00,WeatherDisplay:10.37,2013-05-27 23:45:00,
2013-05-27 19:48:00,71.2,30.4,30.19,SE,128,5.7,6.9,22,0.00,CLR,,0.00,WeatherDisplay:10.37,2013-05-27 23:48:00,
2013-05-27 19:49:00,70.9,31.2,30.19,ESE,110,5.8,8.1,23,0.00,CLR,,0.00,WeatherDisplay:10.37,2013-05-27 23:49:00,
2013-05-27 19:50:00,70.6,31.0,30.19,East,96,5.6,8.1,23,0.00,CLR,,0.00,WeatherDisplay:10.37,2013-05-27 23:50:00,
2013-05-27 19:54:00,70.9,31.2,30.19,SE,136,4.2,6.0,23,0.00,CLR,,0.00,WeatherDisplay:10.37,2013-05-27 23:54:00,
2013-05-27 19:55:00,70.5,30.9,30.19,East,90,6.7,9.5,23,0.00,CLR,,0.00,WeatherDisplay:10.37,2013-05-27 23:55:00,
2013-05-27 19:56:00,70.5,30.9,30.19,East,90,4.8,10.4,23,0.00,CLR,,0.00,WeatherDisplay:10.37,2013-05-27 23:56:00,
2013-05-27 19:59:00,70.7,31.1,30.19,ENE,58,5.6,11.5,23,0.00,CLR,,0.00,WeatherDisplay:10.37,2013-05-27 23:59:00,
2013-05-27 20:00:00,70.4,30.8,30.19,East,95,3.0,6.9,23,0.00,CLR,,0.00,WeatherDisplay:10.37,2013-05-28 00:00:00,
2013-05-27 20:01:00,69.9,30.4,30.19,East,89,3.9,5.8,23,0.00,CLR,,0.00,WeatherDisplay:10.37,2013-05-28 00:01:00,
2013-05-27 20:04:00,69.9,31.4,30.19,NE,52,4.4,6.9,24,0.00,CLR,,0.00,WeatherDisplay:10.37,2013-05-28 00:04:00,
2013-05-27 20:05:00,70.2,31.7,30.19,NE,48,4.2,8.1,24,0.00,CLR,,0.00,WeatherDisplay:10.37,2013-05-28 00:05:00,
2013-05-27 20:06:00,69.9,31.4,30.19,East,85,7.1,9.2,24,0.00,CLR,,0.00,WeatherDisplay:10.37,2013-05-28 00:06:00,
2013-05-27 20:09:00,69.6,31.2,30.19,East,80,6.5,8.5,24,0.00,CLR,,0.00,WeatherDisplay:10.37,2013-05-28 00:09:00,
2013-05-27 20:10:00,69.4,31.0,30.19,SE,127,6.7,9.2,24,0.00,CLR,,0.00,WeatherDisplay:10.37,2013-05-28 00:10:00,
2013-05-27 20:12:00,69.1,30.8,30.19,East,92,5.6,6.9,24,0.00,CLR,,0.00,WeatherDisplay:10.37,2013-05-28 00:12:00,
2013-05-27 20:14:00,69.4,31.0,30.19,East,80,5.1,9.2,24,0.00,CLR,,0.00,WeatherDisplay:10.37,2013-05-28 00:14:00,
2013-05-27 20:15:00,69.4,32.0,30.19,East,80,3.0,5.8,25,0.00,CLR,,0.00,WeatherDisplay:10.37,2013-05-28 00:15:00,
2013-05-27 20:16:00,69.3,31.9,30.19,ESE,121,7.0,11.5,25,0.00,CLR,,0.00,WeatherDisplay:10.37,2013-05-28 00:16:00,
2013-05-27 20:18:00,69.2,30.8,30.19,ENE,75,3.9,11.5,24,0.00,CLR,,0.00,WeatherDisplay:10.37,2013-05-28 00:18:00,
2013-05-27 20:20:00,69.4,32.0,30.19,ESE,114,5.5,8.1,25,0.00,CLR,,0.00,WeatherDisplay:10.37,2013-05-28 00:20:00,
2013-05-27 20:21:00,69.2,30.8,30.19,ESE,107,7.0,11.5,24,0.00,CLR,,0.00,WeatherDisplay:10.37,2013-05-28 00:21:00,
2013-05-27 20:23:00,69.0,30.7,30.19,East,89,6.5,10.4,24,0.00,CLR,,0.00,WeatherDisplay:10.37,2013-05-28 00:23:00,
2013-05-27 20:25:00,69.1,31.8,30.19,ESE,104,6.2,9.2,25,0.00,CLR,,0.00,WeatherDisplay:10.37,2013-05-28 00:25:00,
2013-05-27 20:26:00,69.0,31.7,30.19,East,79,4.4,9.2,25,0.00,CLR,,0.00,WeatherDisplay:10.37,2013-05-28 00:26:00,
2013-05-27 20:27:00,69.0,31.7,30.19,ENE,78,5.5,6.9,25,0.00,CLR,,0.00,WeatherDisplay:10.37,2013-05-28 00:27:00,
2013-05-27 20:30:00,68.9,31.6,30.19,ESE,114,6.1,8.1,25,0.00,CLR,,0.00,WeatherDisplay:10.37,2013-05-28 00:30:00,
2013-05-27 20:31:00,68.9,32.6,30.19,ESE,113,5.2,9.2,26,0.00,CLR,,0.00,WeatherDisplay:10.37,2013-05-28 00:31:00,
2013-05-27 20:33:00,68.5,31.3,30.19,ENE,73,6.4,9.2,25,0.00,CLR,,0.00,WeatherDisplay:10.37,2013-05-28 00:33:00,
2013-05-27 20:35:00,68.8,31.5,30.19,SE,137,2.2,0.0,25,0.00,CLR,,0.00,WeatherDisplay:10.37,2013-05-28 00:35:00,
2013-05-27 20:36:00,68.8,31.5,30.19,East,93,1.9,6.9,25,0.00,CLR,,0.00,WeatherDisplay:10.37,2013-05-28 00:36:00,
2013-05-27 20:38:00,69.0,32.7,30.19,East,80,1.7,4.6,26,0.00,CLR,,0.00,WeatherDisplay:10.37,2013-05-28 00:38:00,
2013-05-27 20:40:00,68.9,32.6,30.19,East,97,1.4,4.6,26,0.00,CLR,,0.00,WeatherDisplay:10.37,2013-05-28 00:40:00,
2013-05-27 20:41:00,68.8,32.5,30.19,East,100,1.5,4.6,26,0.00,CLR,,0.00,WeatherDisplay:10.37,2013-05-28 00:41:00,
2013-05-27 20:42:00,68.7,32.4,30.19,East,100,0.2,2.3,26,0.00,CLR,,0.00,WeatherDisplay:10.37,2013-05-28 00:42:00,
2013-05-27 20:43:00,68.5,32.2,30.19,East,90,0.0,3.1,26,0.00,CLR,,0.00,WeatherDisplay:10.37,2013-05-28 00:43:00,
2013-05-27 20:46:00,68.9,32.6,30.19,SE,126,4.4,6.9,26,0.00,CLR,,0.00,WeatherDisplay:10.37,2013-05-28 00:46:00,
2013-05-27 20:47:00,68.4,32.1,30.19,East,95,2.4,5.1,26,0.00,CLR,,0.00,WeatherDisplay:10.37,2013-05-28 00:47:00,
2013-05-27 20:48:00,68.4,32.1,30.19,East,89,0.0,4.6,26,0.00,CLR,,0.00,WeatherDisplay:10.37,2013-05-28 00:48:00,
2013-05-27 20:51:00,68.4,32.1,30.19,NE,42,0.5,3.5,26,0.00,CLR,,0.00,WeatherDisplay:10.37,2013-05-28 00:51:00,
2013-05-27 20:52:00,68.5,32.2,30.19,NE,42,0.0,3.5,26,0.00,CLR,,0.00,WeatherDisplay:10.37,2013-05-28 00:52:00,
2013-05-27 20:53:00,68.6,32.3,30.20,East,100,1.0,4.6,26,0.00,CLR,,0.00,WeatherDisplay:10.37,2013-05-28 00:53:00,
2013-05-27 20:56:00,69.0,32.7,30.20,SE,128,0.0,3.5,26,0.00,CLR,,0.00,WeatherDisplay:10.37,2013-05-28 00:56:00,
2013-05-27 20:57:00,69.0,32.7,30.20,SSE,160,1.1,4.6,26,0.00,CLR,,0.00,WeatherDisplay:10.37,2013-05-28 00:57:00,
2013-05-27 20:58:00,69.2,31.9,30.20,SSE,160,0.0,0.0,25,0.00,CLR,,0.00,WeatherDisplay:10.37,2013-05-28 00:58:00,
2013-05-27 21:01:00,69.3,30.9,30.20,SSE,160,0.0,0.0,24,0.00,CLR,,0.00,WeatherDisplay:10.37,2013-05-28 01:01:00,
2013-05-27 21:02:00,69.6,32.2,30.20,SSE,160,0.0,0.0,25,0.00,CLR,,0.00,WeatherDisplay:10.37,2013-05-28 01:02:00,
2013-05-27 21:03:00,69.5,32.1,30.20,SSE,160,0.0,0.0,25,0.00,CLR,,0.00,WeatherDisplay:10.37,2013-05-28 01:03:00,
2013-05-27 21:06:00,69.8,31.4,30.20,ESE,120,0.6,3.2,24,0.00,CLR,,0.00,WeatherDisplay:10.37,2013-05-28 01:06:00,
2013-05-27 21:07:00,69.9,31.4,30.20,ESE,116,2.0,5.1,24,0.00,CLR,,0.00,WeatherDisplay:10.37,2013-05-28 01:07:00,
2013-05-27 21:08:00,70.2,31.7,30.20,ESE,112,3.0,3.5,24,0.00,CLR,,0.00,WeatherDisplay:10.37,2013-05-28 01:08:00,
2013-05-27 21:09:00,70.1,31.6,30.20,ESE,112,0.0,0.0,24,0.00,CLR,,0.00,WeatherDisplay:10.37,2013-05-28 01:09:00,
2013-05-27 21:12:00,70.2,30.6,30.20,East,100,0.0,0.0,23,0.00,CLR,,0.00,WeatherDisplay:10.37,2013-05-28 01:12:00,
2013-05-27 21:13:00,70.2,31.7,30.20,East,100,0.0,0.0,24,0.00,CLR,,0.00,WeatherDisplay:10.37,2013-05-28 01:13:00,
2013-05-27 21:14:00,70.5,31.9,30.20,East,100,0.0,0.0,24,0.00,CLR,,0.00,WeatherDisplay:10.37,2013-05-28 01:14:00,
2013-05-27 21:17:00,70.3,31.8,30.21,East,100,0.0,0.0,24,0.00,CLR,,0.00,WeatherDisplay:10.37,2013-05-28 01:17:00,
2013-05-27 21:18:00,70.6,32.0,30.20,East,100,0.0,0.0,24,0.00,CLR,,0.00,WeatherDisplay:10.37,2013-05-28 01:18:00,
2013-05-27 21:19:00,70.7,32.1,30.21,East,100,0.0,0.0,24,0.00,CLR,,0.00,WeatherDisplay:10.37,2013-05-28 01:19:00,
2013-05-27 21:22:00,70.9,32.3,30.21,East,100,0.0,0.0,24,0.00,CLR,,0.00,WeatherDisplay:10.37,2013-05-28 01:22:00,
2013-05-27 21:23:00,71.0,32.4,30.21,East,100,0.0,0.0,24,0.00,CLR,,0.00,WeatherDisplay:10.37,2013-05-28 01:23:00,
2013-05-27 21:24:00,71.0,32.4,30.21,East,100,0.0,0.0,24,0.00,CLR,,0.00,WeatherDisplay:10.37,2013-05-28 01:24:00,
2013-05-27 21:27:00,71.0,31.3,30.21,East,100,0.0,0.0,23,0.00,CLR,,0.00,WeatherDisplay:10.37,2013-05-28 01:27:00,
2013-05-27 21:28:00,70.8,31.1,30.21,East,100,0.0,0.0,23,0.00,CLR,,0.00,WeatherDisplay:10.37,2013-05-28 01:28:00,
2013-05-27 21:29:00,70.6,31.0,30.21,East,100,0.0,0.0,23,0.00,CLR,,0.00,WeatherDisplay:10.37,2013-05-28 01:29:00,
2013-05-27 21:32:00,70.8,32.2,30.21,ESE,121,0.0,0.0,24,0.00,CLR,,0.00,WeatherDisplay:10.37,2013-05-28 01:32:00,
2013-05-27 21:33:00,70.7,32.1,30.21,ESE,121,0.0,0.0,24,0.00,CLR,,0.00,WeatherDisplay:10.37,2013-05-28 01:33:00,
2013-05-27 21:34:00,70.8,32.2,30.21,ESE,119,2.4,4.8,24,0.00,CLR,,0.00,WeatherDisplay:10.37,2013-05-28 01:34:00,
2013-05-27 21:38:00,70.2,32.7,30.21,SE,126,5.3,6.9,25,0.00,CLR,,0.00,WeatherDisplay:10.37,2013-05-28 01:38:00,
2013-05-27 21:39:00,70.4,32.9,30.21,ESE,114,1.8,5.8,25,0.00,CLR,,0.00,WeatherDisplay:10.37,2013-05-28 01:39:00,
2013-05-27 21:43:00,69.7,32.3,30.21,SE,137,0.0,0.0,25,0.00,CLR,,0.00,WeatherDisplay:10.37,2013-05-28 01:43:00,
2013-05-27 21:44:00,69.8,32.4,30.21,SE,137,0.0,0.0,25,0.00,CLR,,0.00,WeatherDisplay:10.37,2013-05-28 01:44:00,
2013-05-27 21:48:00,69.9,33.4,30.21,SE,137,0.0,0.0,26,0.00,CLR,,0.00,WeatherDisplay:10.37,2013-05-28 01:48:00,
2013-05-27 21:49:00,69.7,33.3,30.21,SE,137,0.0,0.0,26,0.00,CLR,,0.00,WeatherDisplay:10.37,2013-05-28 01:49:00,
2013-05-27 21:50:00,69.5,33.1,30.21,SE,137,0.0,0.0,26,0.00,CLR,,0.00,WeatherDisplay:10.37,2013-05-28 01:50:00,
2013-05-27 21:53:00,69.4,33.0,30.21,SE,137,0.0,0.0,26,0.00,CLR,,0.00,WeatherDisplay:10.37,2013-05-28 01:53:00,
2013-05-27 21:54:00,69.4,33.0,30.21,SE,137,0.0,0.0,26,0.00,CLR,,0.00,WeatherDisplay:10.37,2013-05-28 01:54:00,
2013-05-27 21:55:00,69.0,32.7,30.21,SE,137,0.0,0.0,26,0.00,CLR,,0.00,WeatherDisplay:10.37,2013-05-28 01:55:00,
2013-05-27 21:58:00,68.9,32.6,30.22,SE,137,0.0,0.0,26,0.00,CLR,,0.00,WeatherDisplay:10.37,2013-05-28 01:58:00,
2013-05-27 21:59:00,69.2,32.8,30.22,SE,137,0.0,0.0,26,0.00,CLR,,0.00,WeatherDisplay:10.37,2013-05-28 01:59:00,
2013-05-27 22:00:00,68.8,32.5,30.22,SE,137,0.0,0.0,26,0.00,CLR,,0.00,WeatherDisplay:10.37,2013-05-28 02:00:00,
2013-05-27 22:03:00,68.4,33.1,30.22,East,93,0.0,3.5,27,0.00,CLR,,0.00,WeatherDisplay:10.37,2013-05-28 02:03:00,
2013-05-27 22:04:00,68.5,33.2,30.22,East,93,0.0,0.0,27,0.00,CLR,,0.00,WeatherDisplay:10.37,2013-05-28 02:04:00,
2013-05-27 22:05:00,68.5,33.2,30.22,East,93,0.0,0.0,27,0.00,CLR,,0.00,WeatherDisplay:10.37,2013-05-28 02:05:00,
2013-05-27 22:06:00,68.5,33.2,30.22,East,93,0.0,0.0,27,0.00,CLR,,0.00,WeatherDisplay:10.37,2013-05-28 02:06:00,
2013-05-27 22:09:00,68.4,33.1,30.22,East,93,0.0,0.0,27,0.00,CLR,,0.00,WeatherDisplay:10.37,2013-05-28 02:09:00,
2013-05-27 22:10:00,68.6,34.2,30.22,East,93,0.0,0.0,28,0.00,CLR,,0.00,WeatherDisplay:10.37,2013-05-28 02:10:00,
2013-05-27 22:11:00,68.4,34.0,30.22,East,93,0.0,0.0,28,0.00,CLR,,0.00,WeatherDisplay:10.37,2013-05-28 02:11:00,
2013-05-27 22:14:00,68.7,33.3,30.22,East,93,0.0,0.0,27,0.00,CLR,,0.00,WeatherDisplay:10.37,2013-05-28 02:14:00,
2013-05-27 22:15:00,68.5,33.2,30.22,ESE,106,1.9,4.6,27,0.00,CLR,,0.00,WeatherDisplay:10.37,2013-05-28 02:15:00,
2013-05-27 22:16:00,68.7,33.3,30.22,ESE,106,0.1,4.6,27,0.00,CLR,,0.00,WeatherDisplay:10.37,2013-05-28 02:16:00,
2013-05-27 22:19:00,68.4,33.1,30.22,East,99,0.0,3.5,27,0.00,CLR,,0.00,WeatherDisplay:10.37,2013-05-28 02:19:00,
2013-05-27 22:20:00,68.3,33.0,30.23,ESE,121,1.2,4.2,27,0.00,CLR,,0.00,WeatherDisplay:10.37,2013-05-28 02:20:00,
2013-05-27 22:21:00,68.7,33.3,30.23,SE,136,2.4,4.6,27,0.00,CLR,,0.00,WeatherDisplay:10.37,2013-05-28 02:21:00,
2013-05-27 22:24:00,69.0,33.6,30.23,SE,145,0.0,0.0,27,0.00,CLR,,0.00,WeatherDisplay:10.37,2013-05-28 02:24:00,
2013-05-27 22:26:00,68.8,33.4,30.23,SE,145,0.0,0.0,27,0.00,CLR,,0.00,WeatherDisplay:10.37,2013-05-28 02:26:00,
2013-05-27 22:27:00,68.7,33.3,30.23,SE,145,0.0,0.0,27,0.00,CLR,,0.00,WeatherDisplay:10.37,2013-05-28 02:27:00,
2013-05-27 22:29:00,69.1,32.7,30.23,SE,145,0.0,0.0,26,0.00,CLR,,0.00,WeatherDisplay:10.37,2013-05-28 02:29:00,
2013-05-27 22:30:00,68.9,32.6,30.23,SE,145,0.0,0.0,26,0.00,CLR,,0.00,WeatherDisplay:10.37,2013-05-28 02:30:00,
2013-05-27 22:31:00,68.9,32.6,30.23,SE,145,0.0,0.0,26,0.00,CLR,,0.00,WeatherDisplay:10.37,2013-05-28 02:31:00,
2013-05-27 22:32:00,69.5,33.1,30.23,SE,145,0.0,0.0,26,0.00,CLR,,0.00,WeatherDisplay:10.37,2013-05-28 02:32:00,
2013-05-27 22:34:00,69.5,33.1,30.23,SE,145,0.0,0.0,26,0.00,CLR,,0.00,WeatherDisplay:10.37,2013-05-28 02:34:00,
2013-05-27 22:36:00,69.8,33.3,30.23,SE,145,0.0,0.0,26,0.00,CLR,,0.00,WeatherDisplay:10.37,2013-05-28 02:36:00,
2013-05-27 22:37:00,70.0,32.5,30.23,SE,145,0.0,0.0,25,0.00,CLR,,0.00,WeatherDisplay:10.37,2013-05-28 02:37:00,
2013-05-27 22:39:00,69.6,32.2,30.23,SE,145,0.0,0.0,25,0.00,CLR,,0.00,WeatherDisplay:10.37,2013-05-28 02:39:00,
2013-05-27 22:40:00,69.7,32.3,30.23,SE,145,0.0,0.0,25,0.00,CLR,,0.00,WeatherDisplay:10.37,2013-05-28 02:40:00,
2013-05-27 22:41:00,69.9,32.5,30.23,SE,145,0.0,0.0,25,0.00,CLR,,0.00,WeatherDisplay:10.37,2013-05-28 02:41:00,
2013-05-27 22:42:00,69.7,32.3,30.23,SE,145,0.0,0.0,25,0.00,CLR,,0.00,WeatherDisplay:10.37,2013-05-28 02:42:00,
2013-05-27 22:44:00,69.9,32.5,30.23,SE,145,0.0,0.0,25,0.00,CLR,,0.00,WeatherDisplay:10.37,2013-05-28 02:44:00,
2013-05-27 22:45:00,69.9,32.5,30.23,SE,145,0.0,0.0,25,0.00,CLR,,0.00,WeatherDisplay:10.37,2013-05-28 02:45:00,
2013-05-27 22:46:00,70.0,32.5,30.23,SE,145,0.0,0.0,25,0.00,CLR,,0.00,WeatherDisplay:10.37,2013-05-28 02:46:00,
2013-05-27 22:48:00,69.4,32.0,30.23,SE,145,0.0,0.0,25,0.00,CLR,,0.00,WeatherDisplay:10.37,2013-05-28 02:48:00,
2013-05-27 22:49:00,69.4,32.0,30.23,SE,145,0.0,0.0,25,0.00,CLR,,0.00,WeatherDisplay:10.37,2013-05-28 02:49:00,
2013-05-27 22:50:00,69.4,33.0,30.23,SE,145,0.0,0.0,26,0.00,CLR,,0.00,WeatherDisplay:10.37,2013-05-28 02:50:00,
2013-05-27 22:51:00,69.1,32.7,30.23,SE,143,1.5,3.4,26,0.00,CLR,,0.00,WeatherDisplay:10.37,2013-05-28 02:51:00,
2013-05-27 22:53:00,69.4,33.0,30.23,ESE,113,0.0,0.0,26,0.00,CLR,,0.00,WeatherDisplay:10.37,2013-05-28 02:53:00,
2013-05-27 22:54:00,69.3,32.9,30.23,ESE,113,0.0,0.0,26,0.00,CLR,,0.00,WeatherDisplay:10.37,2013-05-28 02:54:00,
2013-05-27 22:55:00,69.2,32.8,30.23,ESE,113,0.0,0.0,26,0.00,CLR,,0.00,WeatherDisplay:10.37,2013-05-28 02:55:00,
2013-05-27 22:56:00,69.5,33.1,30.23,ESE,113,0.0,0.0,26,0.00,CLR,,0.00,WeatherDisplay:10.37,2013-05-28 02:56:00,
2013-05-27 22:58:00,69.2,32.8,30.23,ESE,113,0.0,0.0,26,0.00,CLR,,0.00,WeatherDisplay:10.37,2013-05-28 02:58:00,
2013-05-27 23:00:00,69.3,32.9,30.23,ESE,113,0.0,0.0,26,0.00,CLR,,0.00,WeatherDisplay:10.37,2013-05-28 03:00:00,
2013-05-27 23:02:00,69.2,32.8,30.22,SE,133,3.4,5.8,26,0.00,CLR,,0.00,WeatherDisplay:10.37,2013-05-28 03:02:00,
2013-05-27 23:03:00,69.5,33.1,30.22,ESE,113,0.6,3.5,26,0.00,CLR,,0.00,WeatherDisplay:10.37,2013-05-28 03:03:00,
2013-05-27 23:05:00,69.5,33.1,30.23,ESE,113,0.0,0.0,26,0.00,CLR,,0.00,WeatherDisplay:10.37,2013-05-28 03:05:00,
2013-05-27 23:06:00,69.2,33.8,30.22,SE,140,0.6,5.2,27,0.00,CLR,,0.00,WeatherDisplay:10.37,2013-05-28 03:06:00,
2013-05-27 23:07:00,69.5,34.0,30.23,ESE,116,3.5,4.6,27,0.00,CLR,,0.00,WeatherDisplay:10.37,2013-05-28 03:07:00,
2013-05-27 23:08:00,69.3,33.9,30.22,ESE,123,1.0,4.6,27,0.00,CLR,,0.00,WeatherDisplay:10.37,2013-05-28 03:08:00,
2013-05-27 23:10:00,69.3,33.9,30.22,SE,145,0.0,1.1,27,0.00,CLR,,0.00,WeatherDisplay:10.37,2013-05-28 03:10:00,
2013-05-27 23:11:00,69.0,33.6,30.22,SE,145,0.0,0.0,27,0.00,CLR,,0.00,WeatherDisplay:10.37,2013-05-28 03:11:00,
2013-05-27 23:12:00,69.4,33.9,30.22,SE,145,0.0,0.0,27,0.00,CLR,,0.00,WeatherDisplay:10.37,2013-05-28 03:12:00,
2013-05-27 23:13:00,69.3,33.9,30.22,SE,145,0.0,0.0,27,0.00,CLR,,0.00,WeatherDisplay:10.37,2013-05-28 03:13:00,
2013-05-27 23:15:00,69.3,33.9,30.22,SE,145,0.0,0.0,27,0.00,CLR,,0.00,WeatherDisplay:10.37,2013-05-28 03:15:00,
2013-05-27 23:16:00,69.5,34.0,30.22,SE,145,0.0,0.0,27,0.00,CLR,,0.00,WeatherDisplay:10.37,2013-05-28 03:16:00,
2013-05-27 23:17:00,69.5,34.0,30.22,SE,145,0.0,0.0,27,0.00,CLR,,0.00,WeatherDisplay:10.37,2013-05-28 03:17:00,
2013-05-27 23:18:00,69.3,33.9,30.22,ESE,113,1.5,4.2,27,0.00,CLR,,0.00,WeatherDisplay:10.37,2013-05-28 03:18:00,
2013-05-27 23:20:00,69.5,34.0,30.22,ESE,102,0.0,2.3,27,0.00,CLR,,0.00,WeatherDisplay:10.37,2013-05-28 03:20:00,
2013-05-27 23:21:00,69.1,33.7,30.22,ESE,102,0.0,0.0,27,0.00,CLR,,0.00,WeatherDisplay:10.37,2013-05-28 03:21:00,
2013-05-27 23:22:00,69.0,33.6,30.22,ESE,102,0.0,0.0,27,0.00,CLR,,0.00,WeatherDisplay:10.37,2013-05-28 03:22:00,
2013-05-27 23:24:00,69.5,34.0,30.22,ESE,102,0.0,0.0,27,0.00,CLR,,0.00,WeatherDisplay:10.37,2013-05-28 03:24:00,
2013-05-27 23:25:00,69.3,33.9,30.22,SSE,150,2.8,3.5,27,0.00,CLR,,0.00,WeatherDisplay:10.37,2013-05-28 03:25:00,
2013-05-27 23:26:00,69.3,33.9,30.22,SE,124,2.7,4.6,27,0.00,CLR,,0.00,WeatherDisplay:10.37,2013-05-28 03:26:00,
2013-05-27 23:28:00,69.0,33.6,30.22,ESE,114,0.5,3.5,27,0.00,CLR,,0.00,WeatherDisplay:10.37,2013-05-28 03:28:00,
2013-05-27 23:29:00,69.4,34.9,30.22,ESE,114,0.0,0.0,28,0.00,CLR,,0.00,WeatherDisplay:10.37,2013-05-28 03:29:00,
2013-05-27 23:30:00,68.9,34.4,30.22,ESE,114,0.0,0.0,28,0.00,CLR,,0.00,WeatherDisplay:10.37,2013-05-28 03:30:00,
2013-05-27 23:31:00,68.8,34.3,30.22,ESE,114,0.0,0.0,28,0.00,CLR,,0.00,WeatherDisplay:10.37,2013-05-28 03:31:00,
2013-05-27 23:33:00,68.8,34.3,30.22,ESE,114,0.0,0.0,28,0.00,CLR,,0.00,WeatherDisplay:10.37,2013-05-28 03:33:00,
2013-05-27 23:34:00,68.7,34.3,30.22,ESE,114,0.0,0.0,28,0.00,CLR,,0.00,WeatherDisplay:10.37,2013-05-28 03:34:00,
2013-05-27 23:36:00,68.8,34.3,30.22,ESE,102,2.7,5.8,28,0.00,CLR,,0.00,WeatherDisplay:10.37,2013-05-28 03:36:00,
2013-05-27 23:38:00,68.4,34.9,30.22,ESE,102,0.0,0.0,29,0.00,CLR,,0.00,WeatherDisplay:10.37,2013-05-28 03:38:00,
2013-05-27 23:39:00,68.4,34.0,30.22,ESE,102,0.0,0.0,28,0.00,CLR,,0.00,WeatherDisplay:10.37,2013-05-28 03:39:00,
2013-05-27 23:41:00,68.7,35.1,30.22,ESE,102,0.0,0.0,29,0.00,CLR,,0.00,WeatherDisplay:10.37,2013-05-28 03:41:00,
2013-05-27 23:42:00,68.5,35.0,30.22,ESE,102,0.0,0.0,29,0.00,CLR,,0.00,WeatherDisplay:10.37,2013-05-28 03:42:00,
2013-05-27 23:43:00,68.7,34.3,30.22,ESE,102,0.0,0.0,28,0.00,CLR,,0.00,WeatherDisplay:10.37,2013-05-28 03:43:00,
2013-05-27 23:44:00,68.5,35.0,30.22,East,90,1.9,3.5,29,0.00,CLR,,0.00,WeatherDisplay:10.37,2013-05-28 03:44:00,
2013-05-27 23:46:00,68.2,35.6,30.22,ESE,106,1.1,4.4,30,0.00,CLR,,0.00,WeatherDisplay:10.37,2013-05-28 03:46:00,
2013-05-27 23:47:00,68.2,35.6,30.22,ESE,104,3.5,4.9,30,0.00,CLR,,0.00,WeatherDisplay:10.37,2013-05-28 03:47:00,
2013-05-27 23:48:00,68.3,35.6,30.22,ENE,66,1.8,4.6,30,0.00,CLR,,0.00,WeatherDisplay:10.37,2013-05-28 03:48:00,
2013-05-27 23:50:00,68.1,35.5,30.22,East,100,3.8,5.8,30,0.00,CLR,,0.00,WeatherDisplay:10.37,2013-05-28 03:50:00,
2013-05-27 23:51:00,67.9,35.3,30.22,East,100,0.0,2.3,30,0.00,CLR,,0.00,WeatherDisplay:10.37,2013-05-28 03:51:00,
2013-05-27 23:52:00,68.0,35.4,30.22,East,100,0.0,0.0,30,0.00,CLR,,0.00,WeatherDisplay:10.37,2013-05-28 03:52:00,
2013-05-27 23:53:00,68.1,35.5,30.22,ESE,109,3.2,4.6,30,0.00,CLR,,0.00,WeatherDisplay:10.37,2013-05-28 03:53:00,
2013-05-27 23:55:00,68.4,34.9,30.22,East,89,0.0,0.0,29,0.00,CLR,,0.00,WeatherDisplay:10.37,2013-05-28 03:55:00,
2013-05-27 23:56:00,68.4,34.9,30.23,East,97,1.7,3.0,29,0.00,CLR,,0.00,WeatherDisplay:10.37,2013-05-28 03:56:00,
2013-05-27 23:57:00,68.6,35.1,30.23,East,97,1.9,4.6,29,0.00,CLR,,0.00,WeatherDisplay:10.37,2013-05-28 03:57:00,
2013-05-27 23:58:00,68.7,35.1,30.22,East,97,0.0,0.0,29,0.00,CLR,,0.00,WeatherDisplay:10.37,2013-05-28 03:58:00,